Observation data for Smyer on 08/13/2019      Previous  Date       Current Mesonet Observations  Soil Data  Daily Summary Page  Observations in Plain Language
KSM2 130500Z 35008KT 26/15 A2995 RMK A01 T02580151  RH  052%=      5-min Rain = 0
KSM2 130501Z 35008KT 26/15 A2995 RMK A01 T02590152  RH  052%=      5-min Rain = 0
KSM2 130502Z 35008KT 26/15 A2995 RMK A01 T02590152  RH  052%=      5-min Rain = 0
KSM2 130503Z 35007KT 26/15 A2995 RMK A01 T02600153  RH  052%=      5-min Rain = 0
KSM2 130504Z 35007KT 26/15 A2995 RMK A01 T02600153  RH  052%=      5-min Rain = 0
KSM2 130505Z 35007KT 26/15 A2995 RMK A01 T02590153  RH  052%=      5-min Rain = 0
KSM2 130506Z 35007KT 26/15 A2995 RMK A01 T02580154  RH  052%=      5-min Rain = 0
KSM2 130507Z 36008KT 26/15 A2995 RMK A01 T02580154  RH  053%=      5-min Rain = 0
KSM2 130508Z 36008KT 26/16 A2995 RMK A01 T02590155  RH  053%=      5-min Rain = 0
KSM2 130509Z 36008KT 26/16 A2995 RMK A01 T02600155  RH  052%=      5-min Rain = 0
KSM2 130510Z 36008KT 26/16 A2995 RMK A01 T02610155  RH  052%=      5-min Rain = 0
KSM2 130511Z 36008KT 26/16 A2995 RMK A01 T02620155  RH  052%=      5-min Rain = 0
KSM2 130512Z 36007KT 26/16 A2995 RMK A01 T02620155  RH  052%=      5-min Rain = 0
KSM2 130513Z 35007KT 26/16 A2995 RMK A01 T02620155  RH  052%=      5-min Rain = 0
KSM2 130514Z 35007KT 26/16 A2995 RMK A01 T02620155  RH  052%=      5-min Rain = 0
KSM2 130515Z 36007KT 26/16 A2995 RMK A01 T02620156  RH  052%=      5-min Rain = 0
KSM2 130516Z 36006KT 26/16 A2995 RMK A01 T02620156  RH  052%=      5-min Rain = 0
KSM2 130517Z 35006KT 26/16 A2995 RMK A01 T02610155  RH  052%=      5-min Rain = 0
KSM2 130518Z 36006KT 26/16 A2995 RMK A01 T02610156  RH  052%=      5-min Rain = 0
KSM2 130519Z 36006KT 26/16 A2995 RMK A01 T02610156  RH  052%=      5-min Rain = 0
KSM2 130520Z 35006KT 26/16 A2995 RMK A01 T02600156  RH  053%=      5-min Rain = 0
KSM2 130521Z 36006KT 26/16 A2995 RMK A01 T02600156  RH  053%=      5-min Rain = 0
KSM2 130522Z 36006KT 26/16 A2995 RMK A01 T02600156  RH  053%=      5-min Rain = 0
KSM2 130523Z 36006KT 26/16 A2995 RMK A01 T02590157  RH  053%=      5-min Rain = 0
KSM2 130524Z 36007KT 26/16 A2995 RMK A01 T02590157  RH  053%=      5-min Rain = 0
KSM2 130525Z 36007KT 26/16 A2995 RMK A01 T02590157  RH  053%=      5-min Rain = 0
KSM2 130526Z 00008KT 26/16 A2995 RMK A01 T02590157  RH  053%=      5-min Rain = 0
KSM2 130527Z 00008KT 26/16 A2995 RMK A01 T02590158  RH  054%=      5-min Rain = 0
KSM2 130528Z 00010KT 26/16 A2995 RMK A01 T02590158  RH  054%=      5-min Rain = 0
KSM2 130529Z 00009KT 26/16 A2995 RMK A01 T02590159  RH  054%=      5-min Rain = 0
KSM2 130530Z 01009KT 26/16 A2995 RMK A01 T02590159  RH  054%=      5-min Rain = 0
KSM2 130531Z 00009KT 26/16 A2995 RMK A01 T02590159  RH  054%=      5-min Rain = 0
KSM2 130532Z 01009KT 26/16 A2995 RMK A01 T02590159  RH  054%=      5-min Rain = 0
KSM2 130533Z 01008KT 26/16 A2995 RMK A01 T02600159  RH  054%=      5-min Rain = 0
KSM2 130534Z 01008KT 26/16 A2995 RMK A01 T02600159  RH  054%=      5-min Rain = 0
KSM2 130535Z 00009KT 26/16 A2995 RMK A01 T02600159  RH  054%=      5-min Rain = 0
KSM2 130536Z 00009KT 26/16 A2995 RMK A01 T02600159  RH  054%=      5-min Rain = 0
KSM2 130537Z 36010KT 26/16 A2995 RMK A01 T02600159  RH  054%=      5-min Rain = 0
KSM2 130538Z 35012KT 26/16 A2996 RMK A01 T02590159  RH  054%=      5-min Rain = 0
KSM2 130539Z 36011KT 26/16 A2996 RMK A01 T02590160  RH  054%=      5-min Rain = 0
KSM2 130540Z 35010KT 26/16 A2996 RMK A01 T02580160  RH  055%=      5-min Rain = 0
KSM2 130541Z 00010KT 26/16 A2996 RMK A01 T02580160  RH  055%=      5-min Rain = 0
KSM2 130542Z 00012KT 26/16 A2996 RMK A01 T02590161  RH  055%=      5-min Rain = 0
KSM2 130543Z 01011KT 26/16 A2996 RMK A01 T02600162  RH  055%=      5-min Rain = 0
KSM2 130544Z 01011KT 26/16 A2996 RMK A01 T02610162  RH  055%=      5-min Rain = 0
KSM2 130545Z 00013KT 26/16 A2995 RMK A01 T02610162  RH  054%=      5-min Rain = 0
KSM2 130546Z 00014KT 26/16 A2995 RMK A01 T02620163  RH  055%=      5-min Rain = 0
KSM2 130547Z 00013G19KT 26/16 A2996 RMK A01 T02630164  RH  054%=      5-min Rain = 0
KSM2 130548Z 01013KT 26/16 A2996 RMK A01 T02630164  RH  054%=      5-min Rain = 0
KSM2 130549Z 01014KT 26/16 A2996 RMK A01 T02630164  RH  055%=      5-min Rain = 0
KSM2 130550Z 00013KT 26/17 A2996 RMK A01 T02630165  RH  055%=      5-min Rain = 0
KSM2 130551Z 01015KT 26/17 A2996 RMK A01 T02630165  RH  055%=      5-min Rain = 0
KSM2 130552Z 01012KT 26/17 A2996 RMK A01 T02630166  RH  055%=      5-min Rain = 0
KSM2 130553Z 01012KT 26/17 A2996 RMK A01 T02630166  RH  055%=      5-min Rain = 0
KSM2 130554Z 01013KT 26/17 A2996 RMK A01 T02630166  RH  055%=      5-min Rain = 0
KSM2 130555Z 01013KT 26/17 A2996 RMK A01 T02620166  RH  056%=      5-min Rain = 0
KSM2 130556Z 01013KT 26/17 A2996 RMK A01 T02620166  RH  056%=      5-min Rain = 0
KSM2 130557Z 00013KT 26/17 A2996 RMK A01 T02620167  RH  056%=      5-min Rain = 0
KSM2 130558Z 01014KT 26/17 A2996 RMK A01 T02610167  RH  056%=      5-min Rain = 0
KSM2 130559Z 00014KT 26/17 A2996 RMK A01 T02610167  RH  056%=      5-min Rain = 0
KSM2 130600Z 01016KT 26/17 A2996 RMK A01 T02610167  RH  056%=      5-min Rain = 0
KSM2 130601Z 01014KT 26/17 A2996 RMK A01 T02610168  RH  056%=      5-min Rain = 0
KSM2 130602Z 01013KT 26/17 A2996 RMK A01 T02610168  RH  056%=      5-min Rain = 0
KSM2 130603Z 01013KT 26/17 A2996 RMK A01 T02610168  RH  057%=      5-min Rain = 0
KSM2 130604Z 01015KT 26/17 A2996 RMK A01 T02600168  RH  057%=      5-min Rain = 0
KSM2 130605Z 01015KT 26/17 A2996 RMK A01 T02600169  RH  057%=      5-min Rain = 0
KSM2 130606Z 01015KT 26/17 A2996 RMK A01 T02600169  RH  057%=      5-min Rain = 0
KSM2 130607Z 01015KT 26/17 A2996 RMK A01 T02600169  RH  057%=      5-min Rain = 0
KSM2 130608Z 01014KT 26/17 A2996 RMK A01 T02590169  RH  057%=      5-min Rain = 0
KSM2 130609Z 01016G21KT 26/17 A2996 RMK A01 T02590169  RH  058%=      5-min Rain = 0
KSM2 130610Z 01015KT 26/17 A2996 RMK A01 T02590169  RH  058%=      5-min Rain = 0
KSM2 130611Z 01015G20KT 26/17 A2996 RMK A01 T02590170  RH  058%=      5-min Rain = 0
KSM2 130612Z 00016KT 26/17 A2996 RMK A01 T02590170  RH  058%=      5-min Rain = 0
KSM2 130613Z 00017KT 26/17 A2996 RMK A01 T02580170  RH  058%=      5-min Rain = 0
KSM2 130614Z 01016G21KT 26/17 A2996 RMK A01 T02580170  RH  058%=      5-min Rain = 0
KSM2 130615Z 01015KT 26/17 A2996 RMK A01 T02580170  RH  058%=      5-min Rain = 0
KSM2 130616Z 01014KT 26/17 A2996 RMK A01 T02570170  RH  059%=      5-min Rain = 0
KSM2 130617Z 01013KT 26/17 A2996 RMK A01 T02570171  RH  059%=      5-min Rain = 0
KSM2 130618Z 01013KT 26/17 A2996 RMK A01 T02570170  RH  059%=      5-min Rain = 0
KSM2 130619Z 01013KT 26/17 A2996 RMK A01 T02560170  RH  059%=      5-min Rain = 0
KSM2 130620Z 01012KT 26/17 A2996 RMK A01 T02560170  RH  059%=      5-min Rain = 0
KSM2 130621Z 01013G18KT 26/17 A2996 RMK A01 T02560171  RH  059%=      5-min Rain = 0
KSM2 130622Z 01013KT 26/17 A2996 RMK A01 T02550171  RH  059%=      5-min Rain = 0
KSM2 130623Z 01013KT 26/17 A2996 RMK A01 T02560171  RH  059%=      5-min Rain = 0
KSM2 130624Z 01016KT 26/17 A2996 RMK A01 T02560171  RH  060%=      5-min Rain = 0
KSM2 130625Z 02014KT 26/17 A2996 RMK A01 T02550171  RH  060%=      5-min Rain = 0
KSM2 130626Z 01015G21KT 26/17 A2996 RMK A01 T02560171  RH  060%=      5-min Rain = 0
KSM2 130627Z 01015KT 26/17 A2996 RMK A01 T02550172  RH  060%=      5-min Rain = 0
KSM2 130628Z 02014KT 26/17 A2996 RMK A01 T02550171  RH  060%=      5-min Rain = 0
KSM2 130629Z 01016KT 26/17 A2996 RMK A01 T02550172  RH  060%=      5-min Rain = 0
KSM2 130630Z 02015G20KT 26/17 A2996 RMK A01 T02550172  RH  060%=      5-min Rain = 0
KSM2 130631Z 02016G21KT 26/17 A2996 RMK A01 T02550172  RH  060%=      5-min Rain = 0
KSM2 130632Z 02015KT 25/17 A2996 RMK A01 T02540172  RH  060%=      5-min Rain = 0
KSM2 130633Z 02016G21KT 25/17 A2996 RMK A01 T02540172  RH  061%=      5-min Rain = 0
KSM2 130634Z 03017KT 25/17 A2996 RMK A01 T02540172  RH  061%=      5-min Rain = 0
KSM2 130635Z 02017KT 25/17 A2996 RMK A01 T02530172  RH  061%=      5-min Rain = 0
KSM2 130636Z 02018KT 25/17 A2996 RMK A01 T02530173  RH  061%=      5-min Rain = 0
KSM2 130637Z 02016KT 25/17 A2996 RMK A01 T02530173  RH  061%=      5-min Rain = 0
KSM2 130638Z 02015G20KT 25/17 A2996 RMK A01 T02530173  RH  061%=      5-min Rain = 0
KSM2 130639Z 02018G23KT 25/17 A2996 RMK A01 T02530173  RH  061%=      5-min Rain = 0
KSM2 130640Z 03016KT 25/17 A2996 RMK A01 T02520173  RH  062%=      5-min Rain = 0
KSM2 130641Z 02016KT 25/17 A2996 RMK A01 T02510173  RH  062%=      5-min Rain = 0
KSM2 130642Z 02016KT 25/17 A2996 RMK A01 T02510174  RH  062%=      5-min Rain = 0
KSM2 130643Z 02014G19KT 25/17 A2996 RMK A01 T02510174  RH  062%=      5-min Rain = 0
KSM2 130644Z 02016G21KT 25/17 A2996 RMK A01 T02500174  RH  063%=      5-min Rain = 0
KSM2 130645Z 02017G23KT 25/17 A2996 RMK A01 T02490174  RH  063%=      5-min Rain = 0
KSM2 130646Z 02015KT 25/18 A2996 RMK A01 T02490175  RH  063%=      5-min Rain = 0
KSM2 130647Z 02017KT 25/18 A2996 RMK A01 T02480175  RH  064%=      5-min Rain = 0
KSM2 130648Z 02018KT 25/18 A2996 RMK A01 T02480175  RH  064%=      5-min Rain = 0
KSM2 130649Z 02015G22KT 25/18 A2997 RMK A01 T02480175  RH  064%=      5-min Rain = 0
KSM2 130650Z 02015G21KT 25/18 A2996 RMK A01 T02470176  RH  064%=      5-min Rain = 0
KSM2 130651Z 02017KT 25/18 A2997 RMK A01 T02470176  RH  065%=      5-min Rain = 0
KSM2 130652Z 02016G22KT 25/18 A2997 RMK A01 T02460176  RH  065%=      5-min Rain = 0
KSM2 130653Z 02018KT 25/18 A2997 RMK A01 T02460176  RH  065%=      5-min Rain = 0
KSM2 130654Z 03017G23KT 25/18 A2997 RMK A01 T02460176  RH  065%=      5-min Rain = 0
KSM2 130655Z 03016KT 25/18 A2997 RMK A01 T02450176  RH  065%=      5-min Rain = 0
KSM2 130656Z 03018KT 25/18 A2997 RMK A01 T02450176  RH  065%=      5-min Rain = 0
KSM2 130657Z 03016KT 25/18 A2997 RMK A01 T02450176  RH  065%=      5-min Rain = 0
KSM2 130658Z 02018KT 25/18 A2997 RMK A01 T02450176  RH  065%=      5-min Rain = 0
KSM2 130659Z 03016KT 25/18 A2997 RMK A01 T02450176  RH  066%=      5-min Rain = 0
KSM2 130700Z 03014G19KT 25/18 A2997 RMK A01 T02450176  RH  066%=      5-min Rain = 0
KSM2 130701Z 03018KT 24/18 A2997 RMK A01 T02440176  RH  066%=      5-min Rain = 0
KSM2 130702Z 03016KT 24/18 A2997 RMK A01 T02440176  RH  066%=      5-min Rain = 0
KSM2 130703Z 03014KT 24/18 A2997 RMK A01 T02440176  RH  066%=      5-min Rain = 0
KSM2 130704Z 03015KT 24/18 A2997 RMK A01 T02440176  RH  066%=      5-min Rain = 0
KSM2 130705Z 03014KT 24/18 A2997 RMK A01 T02430176  RH  066%=      5-min Rain = 0
KSM2 130706Z 03017KT 24/18 A2997 RMK A01 T02430176  RH  066%=      5-min Rain = 0
KSM2 130707Z 03018G23KT 24/18 A2997 RMK A01 T02430176  RH  066%=      5-min Rain = 0
KSM2 130708Z 04019KT 24/18 A2997 RMK A01 T02430176  RH  066%=      5-min Rain = 0
KSM2 130709Z 03020KT 24/18 A2997 RMK A01 T02420176  RH  067%=      5-min Rain = 0
KSM2 130710Z 03017KT 24/18 A2997 RMK A01 T02420176  RH  067%=      5-min Rain = 0
KSM2 130711Z 04017G24KT 24/18 A2997 RMK A01 T02420176  RH  067%=      5-min Rain = 0
KSM2 130712Z 03019KT 24/18 A2997 RMK A01 T02420176  RH  067%=      5-min Rain = 0
KSM2 130713Z 03019KT 24/18 A2997 RMK A01 T02410176  RH  067%=      5-min Rain = 0
KSM2 130714Z 03017KT 24/18 A2997 RMK A01 T02410176  RH  067%=      5-min Rain = 0
KSM2 130715Z 03019G25KT 24/18 A2997 RMK A01 T02410176  RH  067%=      5-min Rain = 0
KSM2 130716Z 03018KT 24/18 A2997 RMK A01 T02410176  RH  067%=      5-min Rain = 0
KSM2 130717Z 04016KT 24/18 A2997 RMK A01 T02410176  RH  067%=      5-min Rain = 0
KSM2 130718Z 04019G24KT 24/18 A2997 RMK A01 T02400176  RH  067%=      5-min Rain = 0
KSM2 130719Z 04019KT 24/18 A2997 RMK A01 T02400176  RH  067%=      5-min Rain = 0
KSM2 130720Z 03018G24KT 24/18 A2997 RMK A01 T02400176  RH  067%=      5-min Rain = 0
KSM2 130721Z 04019KT 24/18 A2997 RMK A01 T02400176  RH  067%=      5-min Rain = 0
KSM2 130722Z 04015KT 24/18 A2997 RMK A01 T02390176  RH  068%=      5-min Rain = 0
KSM2 130723Z 04015KT 24/18 A2998 RMK A01 T02390176  RH  068%=      5-min Rain = 0
KSM2 130724Z 04016KT 24/18 A2998 RMK A01 T02390176  RH  068%=      5-min Rain = 0
KSM2 130725Z 03013KT 24/18 A2998 RMK A01 T02380176  RH  068%=      5-min Rain = 0
KSM2 130726Z 04018KT 24/18 A2998 RMK A01 T02380176  RH  068%=      5-min Rain = 0
KSM2 130727Z 04017KT 24/18 A2998 RMK A01 T02380176  RH  068%=      5-min Rain = 0
KSM2 130728Z 04017KT 24/18 A2998 RMK A01 T02380176  RH  068%=      5-min Rain = 0
KSM2 130729Z 04016KT 24/18 A2998 RMK A01 T02380176  RH  068%=      5-min Rain = 0
KSM2 130730Z 04015G21KT 24/18 A2998 RMK A01 T02380177  RH  069%=      5-min Rain = 0
KSM2 130731Z 04016KT 24/18 A2998 RMK A01 T02370176  RH  069%=      5-min Rain = 0
KSM2 130732Z 04014KT 24/18 A2998 RMK A01 T02370176  RH  069%=      5-min Rain = 0
KSM2 130733Z 04012KT 24/18 A2998 RMK A01 T02360176  RH  069%=      5-min Rain = 0
KSM2 130734Z 04017KT 24/18 A2998 RMK A01 T02360177  RH  069%=      5-min Rain = 0
KSM2 130735Z 04016KT 24/18 A2998 RMK A01 T02360177  RH  069%=      5-min Rain = 0
KSM2 130736Z 04017KT 24/18 A2998 RMK A01 T02360177  RH  069%=      5-min Rain = 0
KSM2 130737Z 04015KT 24/18 A2998 RMK A01 T02360177  RH  070%=      5-min Rain = 0
KSM2 130738Z 04014G19KT 24/18 A2998 RMK A01 T02350177  RH  070%=      5-min Rain = 0
KSM2 130739Z 04012KT 24/18 A2998 RMK A01 T02350177  RH  070%=      5-min Rain = 0
KSM2 130740Z 04017KT 24/18 A2998 RMK A01 T02350177  RH  070%=      5-min Rain = 0
KSM2 130741Z 04016KT 24/18 A2998 RMK A01 T02350177  RH  070%=      5-min Rain = 0
KSM2 130742Z 04016KT 23/18 A2998 RMK A01 T02340177  RH  070%=      5-min Rain = 0
KSM2 130743Z 04014KT 24/18 A2998 RMK A01 T02350177  RH  070%=      5-min Rain = 0
KSM2 130744Z 04013KT 24/18 A2998 RMK A01 T02350177  RH  070%=      5-min Rain = 0
KSM2 130745Z 04014KT 23/18 A2998 RMK A01 T02340177  RH  070%=      5-min Rain = 0
KSM2 130746Z 04015G21KT 23/18 A2998 RMK A01 T02340177  RH  070%=      5-min Rain = 0
KSM2 130747Z 04018KT 23/18 A2998 RMK A01 T02340177  RH  071%=      5-min Rain = 0
KSM2 130748Z 04016KT 23/18 A2998 RMK A01 T02340178  RH  071%=      5-min Rain = 0
KSM2 130749Z 04018KT 23/18 A2998 RMK A01 T02340178  RH  071%=      5-min Rain = 0
KSM2 130750Z 04018KT 23/18 A2998 RMK A01 T02340178  RH  071%=      5-min Rain = 0
KSM2 130751Z 04014KT 23/18 A2998 RMK A01 T02340178  RH  071%=      5-min Rain = 0
KSM2 130752Z 04013KT 23/18 A2999 RMK A01 T02330178  RH  071%=      5-min Rain = 0
KSM2 130753Z 04015KT 23/18 A2999 RMK A01 T02330178  RH  071%=      5-min Rain = 0
KSM2 130754Z 04013KT 23/18 A2999 RMK A01 T02320178  RH  071%=      5-min Rain = 0
KSM2 130755Z 04012KT 23/18 A2999 RMK A01 T02320178  RH  071%=      5-min Rain = 0
KSM2 130756Z 05014G20KT 23/18 A2999 RMK A01 T02320178  RH  072%=      5-min Rain = 0
KSM2 130757Z 04012KT 23/18 A2999 RMK A01 T02320178  RH  072%=      5-min Rain = 0
KSM2 130758Z 04013KT 23/18 A2999 RMK A01 T02320178  RH  072%=      5-min Rain = 0
KSM2 130759Z 05012KT 23/18 A2998 RMK A01 T02310178  RH  072%=      5-min Rain = 0
KSM2 130800Z 05013KT 23/18 A2998 RMK A01 T02310178  RH  072%=      5-min Rain = 0
KSM2 130801Z 04013KT 23/18 A2998 RMK A01 T02310178  RH  072%=      5-min Rain = 0
KSM2 130802Z 05015KT 23/18 A2998 RMK A01 T02310178  RH  072%=      5-min Rain = 0
KSM2 130803Z 05014G19KT 23/18 A2998 RMK A01 T02310179  RH  072%=      5-min Rain = 0
KSM2 130804Z 05013KT 23/18 A2998 RMK A01 T02300178  RH  072%=      5-min Rain = 0
KSM2 130805Z 05013KT 23/18 A2998 RMK A01 T02300179  RH  073%=      5-min Rain = 0
KSM2 130806Z 05011KT 23/18 A2998 RMK A01 T02300178  RH  073%=      5-min Rain = 0
KSM2 130807Z 05009KT 23/18 A2998 RMK A01 T02290178  RH  073%=      5-min Rain = 0
KSM2 130808Z 05011KT 23/18 A2998 RMK A01 T02290178  RH  073%=      5-min Rain = 0
KSM2 130809Z 05013KT 23/18 A2998 RMK A01 T02290179  RH  073%=      5-min Rain = 0
KSM2 130810Z 05012KT 23/18 A2998 RMK A01 T02290179  RH  074%=      5-min Rain = 0
KSM2 130811Z 05010KT 23/18 A2998 RMK A01 T02280179  RH  074%=      5-min Rain = 0
KSM2 130812Z 05013KT 23/18 A2998 RMK A01 T02280179  RH  074%=      5-min Rain = 0
KSM2 130813Z 05014KT 23/18 A2998 RMK A01 T02280180  RH  074%=      5-min Rain = 0
KSM2 130814Z 05015KT 23/18 A2998 RMK A01 T02280180  RH  074%=      5-min Rain = 0
KSM2 130815Z 05013G18KT 23/18 A2998 RMK A01 T02280180  RH  074%=      5-min Rain = 0
KSM2 130816Z 05013G18KT 23/18 A2998 RMK A01 T02270180  RH  075%=      5-min Rain = 0
KSM2 130817Z 05011KT 23/18 A2998 RMK A01 T02270180  RH  075%=      5-min Rain = 0
KSM2 130818Z 06011KT 23/18 A2998 RMK A01 T02270180  RH  075%=      5-min Rain = 0
KSM2 130819Z 05011KT 23/18 A2998 RMK A01 T02260180  RH  075%=      5-min Rain = 0
KSM2 130820Z 04010KT 23/18 A2998 RMK A01 T02260180  RH  075%=      5-min Rain = 0
KSM2 130821Z 05010KT 23/18 A2998 RMK A01 T02260180  RH  075%=      5-min Rain = 0
KSM2 130822Z 05011KT 23/18 A2998 RMK A01 T02250180  RH  076%=      5-min Rain = 0
KSM2 130823Z 05010KT 23/18 A2998 RMK A01 T02250180  RH  076%=      5-min Rain = 0
KSM2 130824Z 05010KT 23/18 A2998 RMK A01 T02250181  RH  076%=      5-min Rain = 0
KSM2 130825Z 05010KT 23/18 A2998 RMK A01 T02250181  RH  076%=      5-min Rain = 0
KSM2 130826Z 05010KT 22/18 A2998 RMK A01 T02240180  RH  076%=      5-min Rain = 0
KSM2 130827Z 05010KT 22/18 A2998 RMK A01 T02240181  RH  076%=      5-min Rain = 0
KSM2 130828Z 04009KT 22/18 A2998 RMK A01 T02240181  RH  076%=      5-min Rain = 0
KSM2 130829Z 05009KT 22/18 A2998 RMK A01 T02240181  RH  077%=      5-min Rain = 0
KSM2 130830Z 05010KT 22/18 A2998 RMK A01 T02230181  RH  077%=      5-min Rain = 0
KSM2 130831Z 05009KT 22/18 A2998 RMK A01 T02230181  RH  077%=      5-min Rain = 0
KSM2 130832Z 04009KT 22/18 A2998 RMK A01 T02230181  RH  077%=      5-min Rain = 0
KSM2 130833Z 05009KT 22/18 A2998 RMK A01 T02220181  RH  077%=      5-min Rain = 0
KSM2 130834Z 05010KT 22/18 A2998 RMK A01 T02220181  RH  078%=      5-min Rain = 0
KSM2 130835Z 06009KT 22/18 A2998 RMK A01 T02220181  RH  078%=      5-min Rain = 0
KSM2 130836Z 05010KT 22/18 A2998 RMK A01 T02220181  RH  078%=      5-min Rain = 0
KSM2 130837Z 05010KT 22/18 A2998 RMK A01 T02220181  RH  078%=      5-min Rain = 0
KSM2 130838Z 05013KT 22/18 A2998 RMK A01 T02220182  RH  078%=      5-min Rain = 0
KSM2 130839Z 05010KT 22/18 A2998 RMK A01 T02220182  RH  078%=      5-min Rain = 0
KSM2 130840Z 05011KT 22/18 A2999 RMK A01 T02220182  RH  078%=      5-min Rain = 0
KSM2 130841Z 04010KT 22/18 A2999 RMK A01 T02220182  RH  078%=      5-min Rain = 0
KSM2 130842Z 05011KT 22/18 A2999 RMK A01 T02220182  RH  078%=      5-min Rain = 0
KSM2 130843Z 04009KT 22/18 A2999 RMK A01 T02220183  RH  078%=      5-min Rain = 0
KSM2 130844Z 04012KT 22/18 A2999 RMK A01 T02210182  RH  078%=      5-min Rain = 0
KSM2 130845Z 04012KT 22/18 A2999 RMK A01 T02210182  RH  079%=      5-min Rain = 0
KSM2 130846Z 05013KT 22/18 A2999 RMK A01 T02210183  RH  079%=      5-min Rain = 0
KSM2 130847Z 05011KT 22/18 A2999 RMK A01 T02210183  RH  079%=      5-min Rain = 0
KSM2 130848Z 05011KT 22/18 A2999 RMK A01 T02210183  RH  079%=      5-min Rain = 0
KSM2 130849Z 04010KT 22/18 A2999 RMK A01 T02210183  RH  079%=      5-min Rain = 0
KSM2 130850Z 04009KT 22/18 A2999 RMK A01 T02200182  RH  079%=      5-min Rain = 0
KSM2 130851Z 05011KT 22/18 A2999 RMK A01 T02200183  RH  079%=      5-min Rain = 0
KSM2 130852Z 04011KT 22/18 A2999 RMK A01 T02200182  RH  079%=      5-min Rain = 0
KSM2 130853Z 04009KT 22/18 A2999 RMK A01 T02200182  RH  079%=      5-min Rain = 0
KSM2 130854Z 04008KT 22/18 A2999 RMK A01 T02200182  RH  079%=      5-min Rain = 0
KSM2 130855Z 04009KT 22/18 A2999 RMK A01 T02190182  RH  079%=      5-min Rain = 0
KSM2 130856Z 04011KT 22/18 A2999 RMK A01 T02190182  RH  079%=      5-min Rain = 0
KSM2 130857Z 04011KT 22/18 A2999 RMK A01 T02190182  RH  080%=      5-min Rain = 0
KSM2 130858Z 04010KT 22/18 A2999 RMK A01 T02190183  RH  080%=      5-min Rain = 0
KSM2 130859Z 04011KT 22/18 A2999 RMK A01 T02190182  RH  080%=      5-min Rain = 0
KSM2 130900Z 04012KT 22/18 A2999 RMK A01 T02190183  RH  080%=      5-min Rain = 0
KSM2 130901Z 04011KT 22/18 A2999 RMK A01 T02190183  RH  080%=      5-min Rain = 0
KSM2 130902Z 04009KT 22/18 A2999 RMK A01 T02190183  RH  080%=      5-min Rain = 0
KSM2 130903Z 02009KT 22/18 A2999 RMK A01 T02190183  RH  080%=      5-min Rain = 0
KSM2 130904Z 03009KT 22/18 A2999 RMK A01 T02190183  RH  080%=      5-min Rain = 0
KSM2 130905Z 03009KT 22/18 A2999 RMK A01 T02180183  RH  080%=      5-min Rain = 0
KSM2 130906Z 03010KT 22/18 A2999 RMK A01 T02180183  RH  080%=      5-min Rain = 0
KSM2 130907Z 02009KT 22/18 A2999 RMK A01 T02180183  RH  081%=      5-min Rain = 0
KSM2 130908Z 03009KT 22/18 A2999 RMK A01 T02180182  RH  080%=      5-min Rain = 0
KSM2 130909Z 03008KT 22/18 A2999 RMK A01 T02180182  RH  080%=      5-min Rain = 0
KSM2 130910Z 02008KT 22/18 A2999 RMK A01 T02180183  RH  080%=      5-min Rain = 0
KSM2 130911Z 02009KT 22/18 A2999 RMK A01 T02170183  RH  081%=      5-min Rain = 0
KSM2 130912Z 03009KT 22/18 A2999 RMK A01 T02170183  RH  081%=      5-min Rain = 0
KSM2 130913Z 03009KT 22/18 A2999 RMK A01 T02170182  RH  081%=      5-min Rain = 0
KSM2 130914Z 03010KT 22/18 A2999 RMK A01 T02170183  RH  081%=      5-min Rain = 0
KSM2 130915Z 03010KT 22/18 A2999 RMK A01 T02170183  RH  081%=      5-min Rain = 0
KSM2 130916Z 03010KT 22/18 A2999 RMK A01 T02170183  RH  081%=      5-min Rain = 0
KSM2 130917Z 03010KT 22/18 A2999 RMK A01 T02170183  RH  081%=      5-min Rain = 0
KSM2 130918Z 04011KT 22/18 A2999 RMK A01 T02170183  RH  081%=      5-min Rain = 0
KSM2 130919Z 03011KT 22/18 A2999 RMK A01 T02170183  RH  081%=      5-min Rain = 0
KSM2 130920Z 03010KT 22/18 A2999 RMK A01 T02170183  RH  081%=      5-min Rain = 0
KSM2 130921Z 03008KT 22/18 A2999 RMK A01 T02170183  RH  081%=      5-min Rain = 0
KSM2 130922Z 03009KT 22/18 A2999 RMK A01 T02160183  RH  081%=      5-min Rain = 0
KSM2 130923Z 03010KT 22/18 A2999 RMK A01 T02160183  RH  081%=      5-min Rain = 0
KSM2 130924Z 04013KT 22/18 A2999 RMK A01 T02160183  RH  082%=      5-min Rain = 0
KSM2 130925Z 04013KT 22/18 A2999 RMK A01 T02160183  RH  082%=      5-min Rain = 0
KSM2 130926Z 04010KT 22/18 A2999 RMK A01 T02160183  RH  082%=      5-min Rain = 0
KSM2 130927Z 04009KT 22/18 A2999 RMK A01 T02160183  RH  082%=      5-min Rain = 0
KSM2 130928Z 04010KT 22/18 A2999 RMK A01 T02160183  RH  082%=      5-min Rain = 0
KSM2 130929Z 04008KT 22/18 A2999 RMK A01 T02160183  RH  082%=      5-min Rain = 0
KSM2 130930Z 04009KT 22/18 A2999 RMK A01 T02150183  RH  082%=      5-min Rain = 0
KSM2 130931Z 04010KT 22/18 A2999 RMK A01 T02150183  RH  082%=      5-min Rain = 0
KSM2 130932Z 04010KT 22/18 A30 RMK A01 T02150184  RH  082%=      5-min Rain = 0
KSM2 130933Z 04009KT 22/18 A30 RMK A01 T02160184  RH  082%=      5-min Rain = 0
KSM2 130934Z 04009KT 22/18 A30 RMK A01 T02150184  RH  082%=      5-min Rain = 0
KSM2 130935Z 04009KT 22/18 A30 RMK A01 T02150184  RH  082%=      5-min Rain = 0
KSM2 130936Z 04007KT 22/18 A30 RMK A01 T02160183  RH  082%=      5-min Rain = 0
KSM2 130937Z 04009KT 22/18 A30 RMK A01 T02150183  RH  082%=      5-min Rain = 0
KSM2 130938Z 05010KT 21/18 A30 RMK A01 T02140183  RH  082%=      5-min Rain = 0
KSM2 130939Z 05010KT 22/18 A30 RMK A01 T02150184  RH  083%=      5-min Rain = 0
KSM2 130940Z 04011KT 22/18 A30 RMK A01 T02150184  RH  083%=      5-min Rain = 0
KSM2 130941Z 05010KT 22/18 A30 RMK A01 T02150184  RH  083%=      5-min Rain = 0
KSM2 130942Z 05009KT 22/18 A30 RMK A01 T02150184  RH  083%=      5-min Rain = 0
KSM2 130943Z 05009KT 22/18 A30 RMK A01 T02150184  RH  083%=      5-min Rain = 0
KSM2 130944Z 04009KT 21/18 A30 RMK A01 T02140184  RH  083%=      5-min Rain = 0
KSM2 130945Z 04009KT 21/18 A30 RMK A01 T02140183  RH  083%=      5-min Rain = 0
KSM2 130946Z 05011KT 21/18 A30 RMK A01 T02140184  RH  083%=      5-min Rain = 0
KSM2 130947Z 05010KT 21/18 A30 RMK A01 T02140184  RH  083%=      5-min Rain = 0
KSM2 130948Z 05010KT 21/18 A30 RMK A01 T02140184  RH  083%=      5-min Rain = 0
KSM2 130949Z 05012KT 21/18 A30 RMK A01 T02140184  RH  083%=      5-min Rain = 0
KSM2 130950Z 05011KT 21/18 A30 RMK A01 T02140184  RH  083%=      5-min Rain = 0
KSM2 130951Z 04011KT 21/18 A30 RMK A01 T02140184  RH  083%=      5-min Rain = 0
KSM2 130952Z 05008KT 21/18 A30 RMK A01 T02140184  RH  083%=      5-min Rain = 0
KSM2 130953Z 05009KT 21/18 A30 RMK A01 T02130184  RH  083%=      5-min Rain = 0
KSM2 130954Z 05009KT 21/18 A30 RMK A01 T02130184  RH  084%=      5-min Rain = 0
KSM2 130955Z 04010KT 21/18 A30 RMK A01 T02130184  RH  084%=      5-min Rain = 0
KSM2 130956Z 04008KT 21/18 A30 RMK A01 T02120184  RH  084%=      5-min Rain = 0
KSM2 130957Z 04007KT 21/18 A30 RMK A01 T02130184  RH  084%=      5-min Rain = 0
KSM2 130958Z 04007KT 21/18 A30 RMK A01 T02120183  RH  084%=      5-min Rain = 0
KSM2 130959Z 03007KT 21/18 A30 RMK A01 T02120183  RH  084%=      5-min Rain = 0
KSM2 131000Z 03008KT 21/18 A30 RMK A01 T02110183  RH  084%=      5-min Rain = 0
KSM2 131001Z 03008KT 21/18 A3001 RMK A01 T02110183  RH  084%=      5-min Rain = 0
KSM2 131002Z 04007KT 21/18 A3001 RMK A01 T02110183  RH  084%=      5-min Rain = 0
KSM2 131003Z 03007KT 21/18 A3001 RMK A01 T02110183  RH  084%=      5-min Rain = 0
KSM2 131004Z 03008KT 21/18 A3001 RMK A01 T02100183  RH  084%=      5-min Rain = 0
KSM2 131005Z 03009KT 21/18 A3001 RMK A01 T02100183  RH  084%=      5-min Rain = 0
KSM2 131006Z 02006KT 21/18 A3001 RMK A01 T02100183  RH  084%=      5-min Rain = 0
KSM2 131007Z 02007KT 21/18 A3001 RMK A01 T02110183  RH  084%=      5-min Rain = 0
KSM2 131008Z 03006KT 21/18 A3001 RMK A01 T02100183  RH  084%=      5-min Rain = 0
KSM2 131009Z 02007KT 21/18 A3001 RMK A01 T02100183  RH  084%=      5-min Rain = 0
KSM2 131010Z 03008KT 21/18 A3001 RMK A01 T02100183  RH  085%=      5-min Rain = 0
KSM2 131011Z 02008KT 21/18 A3001 RMK A01 T02100184  RH  085%=      5-min Rain = 0
KSM2 131012Z 03007KT 21/18 A3001 RMK A01 T02100184  RH  085%=      5-min Rain = 0
KSM2 131013Z 04008KT 21/18 A3001 RMK A01 T02090183  RH  085%=      5-min Rain = 0
KSM2 131014Z 04007KT 21/18 A3001 RMK A01 T02090183  RH  085%=      5-min Rain = 0
KSM2 131015Z 04007KT 21/18 A3001 RMK A01 T02090183  RH  085%=      5-min Rain = 0
KSM2 131016Z 04007KT 21/18 A3001 RMK A01 T02090183  RH  085%=      5-min Rain = 0
KSM2 131017Z 04007KT 21/18 A3001 RMK A01 T02090183  RH  085%=      5-min Rain = 0
KSM2 131018Z 05007KT 21/18 A3001 RMK A01 T02090183  RH  085%=      5-min Rain = 0
KSM2 131019Z 04007KT 21/18 A3001 RMK A01 T02090184  RH  086%=      5-min Rain = 0
KSM2 131020Z 05007KT 21/18 A3001 RMK A01 T02080183  RH  085%=      5-min Rain = 0
KSM2 131021Z 04007KT 21/18 A3001 RMK A01 T02090183  RH  085%=      5-min Rain = 0
KSM2 131022Z 04008KT 21/18 A3001 RMK A01 T02080183  RH  086%=      5-min Rain = 0
KSM2 131023Z 04008KT 21/18 A3001 RMK A01 T02080183  RH  086%=      5-min Rain = 0
KSM2 131024Z 04010KT 21/18 A3001 RMK A01 T02080183  RH  086%=      5-min Rain = 0
KSM2 131025Z 04009KT 21/18 A3001 RMK A01 T02080184  RH  086%=      5-min Rain = 0
KSM2 131026Z 04010KT 21/18 A3001 RMK A01 T02080184  RH  086%=      5-min Rain = 0
KSM2 131027Z 05008KT 21/18 A3002 RMK A01 T02080184  RH  086%=      5-min Rain = 0
KSM2 131028Z 05010KT 21/18 A3002 RMK A01 T02080184  RH  086%=      5-min Rain = 0
KSM2 131029Z 05009KT 21/18 A3002 RMK A01 T02080184  RH  086%=      5-min Rain = 0
KSM2 131030Z 04008KT 21/18 A3002 RMK A01 T02080184  RH  086%=      5-min Rain = 0
KSM2 131031Z 05009KT 21/18 A3002 RMK A01 T02080184  RH  086%=      5-min Rain = 0
KSM2 131032Z 05009KT 21/19 A3002 RMK A01 T02080185  RH  086%=      5-min Rain = 0
KSM2 131033Z 04009KT 21/19 A3002 RMK A01 T02080185  RH  086%=      5-min Rain = 0
KSM2 131034Z 05007KT 21/19 A3002 RMK A01 T02080185  RH  086%=      5-min Rain = 0
KSM2 131035Z 04007KT 21/19 A3002 RMK A01 T02080185  RH  086%=      5-min Rain = 0
KSM2 131036Z 05008KT 21/18 A3002 RMK A01 T02080184  RH  086%=      5-min Rain = 0
KSM2 131037Z 04009KT 21/19 A3002 RMK A01 T02080185  RH  087%=      5-min Rain = 0
KSM2 131038Z 04009KT 21/19 A3002 RMK A01 T02080185  RH  087%=      5-min Rain = 0
KSM2 131039Z 04010KT 21/19 A3002 RMK A01 T02080185  RH  087%=      5-min Rain = 0
KSM2 131040Z 04009KT 21/19 A3002 RMK A01 T02070185  RH  087%=      5-min Rain = 0
KSM2 131041Z 04009KT 21/19 A3002 RMK A01 T02070185  RH  087%=      5-min Rain = 0
KSM2 131042Z 04009KT 21/18 A3002 RMK A01 T02070184  RH  087%=      5-min Rain = 0
KSM2 131043Z 04008KT 21/19 A3003 RMK A01 T02070185  RH  087%=      5-min Rain = 0
KSM2 131044Z 03006KT 21/19 A3003 RMK A01 T02070185  RH  087%=      5-min Rain = 0
KSM2 131045Z 02006KT 21/18 A3003 RMK A01 T02070184  RH  087%=      5-min Rain = 0
KSM2 131046Z 02007KT 21/19 A3003 RMK A01 T02070185  RH  087%=      5-min Rain = 0
KSM2 131047Z 03007KT 21/19 A3003 RMK A01 T02070185  RH  087%=      5-min Rain = 0
KSM2 131048Z 02009KT 21/19 A3003 RMK A01 T02070185  RH  087%=      5-min Rain = 0
KSM2 131049Z 03010KT 21/19 A3003 RMK A01 T02070185  RH  088%=      5-min Rain = 0
KSM2 131050Z 02010KT 21/19 A3003 RMK A01 T02070185  RH  087%=      5-min Rain = 0
KSM2 131051Z 03008KT 21/19 A3003 RMK A01 T02070185  RH  087%=      5-min Rain = 0
KSM2 131052Z 02008KT 21/19 A3003 RMK A01 T02070185  RH  087%=      5-min Rain = 0
KSM2 131053Z 02007KT 21/19 A3003 RMK A01 T02070185  RH  087%=      5-min Rain = 0
KSM2 131054Z 01007KT 21/19 A3003 RMK A01 T02070185  RH  087%=      5-min Rain = 0
KSM2 131055Z 01007KT 21/18 A3003 RMK A01 T02060184  RH  087%=      5-min Rain = 0
KSM2 131056Z 01007KT 21/18 A3003 RMK A01 T02060184  RH  087%=      5-min Rain = 0
KSM2 131057Z 01009KT 21/19 A3003 RMK A01 T02060185  RH  088%=      5-min Rain = 0
KSM2 131058Z 02010KT 21/19 A3003 RMK A01 T02060185  RH  088%=      5-min Rain = 0
KSM2 131059Z 01009KT 21/19 A3003 RMK A01 T02060185  RH  088%=      5-min Rain = 0
KSM2 131100Z 00008KT 21/19 A3003 RMK A01 T02060185  RH  087%=      5-min Rain = 0
KSM2 131101Z 00008KT 21/18 A3003 RMK A01 T02060184  RH  087%=      5-min Rain = 0
KSM2 131102Z 00008KT 21/18 A3003 RMK A01 T02060184  RH  087%=      5-min Rain = 0
KSM2 131103Z 01009KT 21/18 A3003 RMK A01 T02060184  RH  088%=      5-min Rain = 0
KSM2 131104Z 01008KT 21/19 A3003 RMK A01 T02060185  RH  088%=      5-min Rain = 0
KSM2 131105Z 01008KT 21/19 A3003 RMK A01 T02050185  RH  088%=      5-min Rain = 0
KSM2 131106Z 01008KT 21/19 A3003 RMK A01 T02060185  RH  088%=      5-min Rain = 0
KSM2 131107Z 01007KT 21/19 A3003 RMK A01 T02060185  RH  088%=      5-min Rain = 0
KSM2 131108Z 01007KT 21/19 A3003 RMK A01 T02060185  RH  088%=      5-min Rain = 0
KSM2 131109Z 02007KT 21/19 A3003 RMK A01 T02060185  RH  088%=      5-min Rain = 0
KSM2 131110Z 02007KT 21/19 A3003 RMK A01 T02060185  RH  088%=      5-min Rain = 0
KSM2 131111Z 02005KT 21/19 A3003 RMK A01 T02060185  RH  088%=      5-min Rain = 0
KSM2 131112Z 02008KT 21/19 A3003 RMK A01 T02060185  RH  088%=      5-min Rain = 0
KSM2 131113Z 02007KT 21/19 A3003 RMK A01 T02070185  RH  088%=      5-min Rain = 0
KSM2 131114Z 03007KT 21/19 A3004 RMK A01 T02070185  RH  087%=      5-min Rain = 0
KSM2 131115Z 02006KT 21/19 A3004 RMK A01 T02070185  RH  087%=      5-min Rain = 0
KSM2 131116Z 02006KT 21/19 A3004 RMK A01 T02070185  RH  087%=      5-min Rain = 0
KSM2 131117Z 02009KT 21/19 A3004 RMK A01 T02070186  RH  087%=      5-min Rain = 0
KSM2 131118Z 03009KT 21/19 A3004 RMK A01 T02080186  RH  087%=      5-min Rain = 0
KSM2 131119Z 03009KT 21/19 A3004 RMK A01 T02080186  RH  087%=      5-min Rain = 0
KSM2 131120Z 03008KT 21/19 A3004 RMK A01 T02080185  RH  087%=      5-min Rain = 0
KSM2 131121Z 03009KT 21/19 A3004 RMK A01 T02080185  RH  087%=      5-min Rain = 0
KSM2 131122Z 03009KT 21/19 A3004 RMK A01 T02080185  RH  087%=      5-min Rain = 0
KSM2 131123Z 03009KT 21/19 A3003 RMK A01 T02080185  RH  087%=      5-min Rain = 0
KSM2 131124Z 04010KT 21/19 A3003 RMK A01 T02090186  RH  087%=      5-min Rain = 0
KSM2 131125Z 04010KT 21/19 A3003 RMK A01 T02090185  RH  087%=      5-min Rain = 0
KSM2 131126Z 04009KT 21/19 A3004 RMK A01 T02090186  RH  087%=      5-min Rain = 0
KSM2 131127Z 03009KT 21/19 A3004 RMK A01 T02090186  RH  087%=      5-min Rain = 0
KSM2 131128Z 05007KT 21/19 A3004 RMK A01 T02090186  RH  087%=      5-min Rain = 0
KSM2 131129Z 04007KT 21/19 A3004 RMK A01 T02090186  RH  087%=      5-min Rain = 0
KSM2 131130Z 05006KT 21/19 A3004 RMK A01 T02090186  RH  087%=      5-min Rain = 0
KSM2 131131Z 04006KT 21/19 A3004 RMK A01 T02090186  RH  087%=      5-min Rain = 0
KSM2 131132Z 04009KT 21/19 A3004 RMK A01 T02080186  RH  087%=      5-min Rain = 0
KSM2 131133Z 04009KT 21/19 A3004 RMK A01 T02080186  RH  087%=      5-min Rain = 0
KSM2 131134Z 04008KT 21/19 A3004 RMK A01 T02090186  RH  087%=      5-min Rain = 0
KSM2 131135Z 04008KT 21/19 A3004 RMK A01 T02090186  RH  087%=      5-min Rain = 0
KSM2 131136Z 04009KT 21/19 A3004 RMK A01 T02090186  RH  087%=      5-min Rain = 0
KSM2 131137Z 04008KT 21/19 A3004 RMK A01 T02090186  RH  087%=      5-min Rain = 0
KSM2 131138Z 04007KT 21/19 A3004 RMK A01 T02090186  RH  087%=      5-min Rain = 0
KSM2 131139Z 04007KT 21/19 A3004 RMK A01 T02080185  RH  086%=      5-min Rain = 0
KSM2 131140Z 04007KT 21/19 A3004 RMK A01 T02090185  RH  087%=      5-min Rain = 0
KSM2 131141Z 04007KT 21/19 A3004 RMK A01 T02090185  RH  087%=      5-min Rain = 0
KSM2 131142Z 03008KT 21/19 A3004 RMK A01 T02090185  RH  087%=      5-min Rain = 0
KSM2 131143Z 03008KT 21/19 A3004 RMK A01 T02090186  RH  087%=      5-min Rain = 0
KSM2 131144Z 03009KT 21/19 A3004 RMK A01 T02090186  RH  087%=      5-min Rain = 0
KSM2 131145Z 04009KT 21/19 A3004 RMK A01 T02090186  RH  087%=      5-min Rain = 0
KSM2 131146Z 04009KT 21/19 A3004 RMK A01 T02080186  RH  087%=      5-min Rain = 0
KSM2 131147Z 04008KT 21/19 A3004 RMK A01 T02080185  RH  087%=      5-min Rain = 0
KSM2 131148Z 03010KT 21/19 A3004 RMK A01 T02080186  RH  087%=      5-min Rain = 0
KSM2 131149Z 03011KT 21/19 A3004 RMK A01 T02080186  RH  087%=      5-min Rain = 0
KSM2 131150Z 04010KT 21/19 A3004 RMK A01 T02080186  RH  087%=      5-min Rain = 0
KSM2 131151Z 03009KT 21/19 A3004 RMK A01 T02090186  RH  087%=      5-min Rain = 0
KSM2 131152Z 03011KT 21/19 A3004 RMK A01 T02090186  RH  087%=      5-min Rain = 0
KSM2 131153Z 04010KT 21/19 A3004 RMK A01 T02090185  RH  087%=      5-min Rain = 0
KSM2 131154Z 04010KT 21/19 A3004 RMK A01 T02090185  RH  086%=      5-min Rain = 0
KSM2 131155Z 04010KT 21/19 A3004 RMK A01 T02090185  RH  086%=      5-min Rain = 0
KSM2 131156Z 04011KT 21/19 A3004 RMK A01 T02080185  RH  087%=      5-min Rain = 0
KSM2 131157Z 04009KT 21/19 A3004 RMK A01 T02090186  RH  087%=      5-min Rain = 0
KSM2 131158Z 04008KT 21/19 A3004 RMK A01 T02090186  RH  087%=      5-min Rain = 0
KSM2 131159Z 05009KT 21/19 A3004 RMK A01 T02090186  RH  087%=      5-min Rain = 0
KSM2 131200Z 05010KT 21/19 A3004 RMK A01 T02080186  RH  087%=      5-min Rain = 0
KSM2 131201Z 04011KT 21/19 A3004 RMK A01 T02080186  RH  087%=      5-min Rain = 0
KSM2 131202Z 04011KT 21/19 A3004 RMK A01 T02080186  RH  087%=      5-min Rain = 0
KSM2 131203Z 04010KT 21/19 A3004 RMK A01 T02080186  RH  087%=      5-min Rain = 0
KSM2 131204Z 04009KT 21/19 A3004 RMK A01 T02080186  RH  087%=      5-min Rain = 0
KSM2 131205Z 04008KT 21/19 A3005 RMK A01 T02080185  RH  087%=      5-min Rain = 0
KSM2 131206Z 03007KT 21/19 A3005 RMK A01 T02080185  RH  087%=      5-min Rain = 0
KSM2 131207Z 03011KT 21/19 A3005 RMK A01 T02080185  RH  087%=      5-min Rain = 0
KSM2 131208Z 04009KT 21/19 A3005 RMK A01 T02080185  RH  087%=      5-min Rain = 0
KSM2 131209Z 03009KT 21/19 A3005 RMK A01 T02080185  RH  087%=      5-min Rain = 0
KSM2 131210Z 03008KT 21/19 A3005 RMK A01 T02080186  RH  087%=      5-min Rain = 0
KSM2 131211Z 04010KT 21/19 A3005 RMK A01 T02080185  RH  087%=      5-min Rain = 0
KSM2 131212Z 04010KT 21/19 A3005 RMK A01 T02080185  RH  087%=      5-min Rain = 0
KSM2 131213Z 04010KT 21/19 A3005 RMK A01 T02080186  RH  087%=      5-min Rain = 0
KSM2 131214Z 04008KT 21/19 A3005 RMK A01 T02080186  RH  087%=      5-min Rain = 0
KSM2 131215Z 04009KT 21/19 A3005 RMK A01 T02080186  RH  087%=      5-min Rain = 0
KSM2 131216Z 04010KT 21/19 A3005 RMK A01 T02080186  RH  087%=      5-min Rain = 0
KSM2 131217Z 03009KT 21/19 A3005 RMK A01 T02080186  RH  087%=      5-min Rain = 0
KSM2 131218Z 04009KT 21/19 A3005 RMK A01 T02080186  RH  087%=      5-min Rain = 0
KSM2 131219Z 03009KT 21/19 A3005 RMK A01 T02080186  RH  087%=      5-min Rain = 0
KSM2 131220Z 04010KT 21/19 A3005 RMK A01 T02080186  RH  087%=      5-min Rain = 0
KSM2 131221Z 04010KT 21/19 A3005 RMK A01 T02080185  RH  087%=      5-min Rain = 0
KSM2 131222Z 03009KT 21/19 A3005 RMK A01 T02080186  RH  087%=      5-min Rain = 0
KSM2 131223Z 03008KT 21/19 A3005 RMK A01 T02080185  RH  087%=      5-min Rain = 0
KSM2 131224Z 03009KT 21/19 A3005 RMK A01 T02090186  RH  087%=      5-min Rain = 0
KSM2 131225Z 04009KT 21/19 A3005 RMK A01 T02090185  RH  087%=      5-min Rain = 0
KSM2 131226Z 03009KT 21/19 A3005 RMK A01 T02090185  RH  087%=      5-min Rain = 0
KSM2 131227Z 03008KT 21/19 A3005 RMK A01 T02090185  RH  086%=      5-min Rain = 0
KSM2 131228Z 02006KT 21/19 A3005 RMK A01 T02090185  RH  086%=      5-min Rain = 0
KSM2 131229Z 02007KT 21/19 A3005 RMK A01 T02090185  RH  086%=      5-min Rain = 0
KSM2 131230Z 02008KT 21/19 A3005 RMK A01 T02090186  RH  087%=      5-min Rain = 0
KSM2 131231Z 02007KT 21/19 A3005 RMK A01 T02080186  RH  087%=      5-min Rain = 0
KSM2 131232Z 03008KT 21/19 A3005 RMK A01 T02080185  RH  087%=      5-min Rain = 0
KSM2 131233Z 03007KT 21/19 A3005 RMK A01 T02080186  RH  087%=      5-min Rain = 0
KSM2 131234Z 03008KT 21/19 A3005 RMK A01 T02080186  RH  087%=      5-min Rain = 0
KSM2 131235Z 03007KT 21/19 A3005 RMK A01 T02070185  RH  087%=      5-min Rain = 0
KSM2 131236Z 03008KT 21/19 A3005 RMK A01 T02070185  RH  087%=      5-min Rain = 0
KSM2 131237Z 03008KT 21/19 A3005 RMK A01 T02070185  RH  087%=      5-min Rain = 0
KSM2 131238Z 02009KT 21/19 A3005 RMK A01 T02080185  RH  087%=      5-min Rain = 0
KSM2 131239Z 03008KT 21/19 A3005 RMK A01 T02080186  RH  087%=      5-min Rain = 0
KSM2 131240Z 02007KT 21/19 A3005 RMK A01 T02080186  RH  087%=      5-min Rain = 0
KSM2 131241Z 03009KT 21/19 A3005 RMK A01 T02080186  RH  087%=      5-min Rain = 0
KSM2 131242Z 02008KT 21/19 A3005 RMK A01 T02080186  RH  087%=      5-min Rain = 0
KSM2 131243Z 02008KT 21/19 A3006 RMK A01 T02080186  RH  087%=      5-min Rain = 0
KSM2 131244Z 03007KT 21/19 A3006 RMK A01 T02080186  RH  087%=      5-min Rain = 0
KSM2 131245Z 02009KT 21/19 A3006 RMK A01 T02080186  RH  087%=      5-min Rain = 0
KSM2 131246Z 03009KT 21/19 A3006 RMK A01 T02080186  RH  087%=      5-min Rain = 0
KSM2 131247Z 02009KT 21/19 A3006 RMK A01 T02080186  RH  087%=      5-min Rain = 0
KSM2 131248Z 03010KT 21/19 A3006 RMK A01 T02090186  RH  087%=      5-min Rain = 0
KSM2 131249Z 02009KT 21/19 A3005 RMK A01 T02090186  RH  087%=      5-min Rain = 0
KSM2 131250Z 02011KT 21/19 A3005 RMK A01 T02080186  RH  087%=      5-min Rain = 0
KSM2 131251Z 03010KT 21/19 A3005 RMK A01 T02090186  RH  087%=      5-min Rain = 0
KSM2 131252Z 03009KT 21/19 A3005 RMK A01 T02090186  RH  087%=      5-min Rain = 0
KSM2 131253Z 03010KT 21/19 A3005 RMK A01 T02090186  RH  087%=      5-min Rain = 0
KSM2 131254Z 03010KT 21/19 A3005 RMK A01 T02090186  RH  086%=      5-min Rain = 0
KSM2 131255Z 03008KT 21/19 A3006 RMK A01 T02100186  RH  086%=      5-min Rain = 0
KSM2 131256Z 03011KT 21/19 A3005 RMK A01 T02100186  RH  086%=      5-min Rain = 0
KSM2 131257Z 04010KT 21/19 A3006 RMK A01 T02100186  RH  086%=      5-min Rain = 0
KSM2 131258Z 03008KT 21/19 A3006 RMK A01 T02100186  RH  086%=      5-min Rain = 0
KSM2 131259Z 03008KT 21/19 A3006 RMK A01 T02100186  RH  086%=      5-min Rain = 0
KSM2 131300Z 03010KT 21/19 A3006 RMK A01 T02110186  RH  086%=      5-min Rain = 0
KSM2 131301Z 03009KT 21/19 A3006 RMK A01 T02110187  RH  086%=      5-min Rain = 0
KSM2 131302Z 03010KT 21/19 A3006 RMK A01 T02110187  RH  086%=      5-min Rain = 0
KSM2 131303Z 03010KT 21/19 A3006 RMK A01 T02110187  RH  086%=      5-min Rain = 0
KSM2 131304Z 04009KT 21/19 A3006 RMK A01 T02120186  RH  085%=      5-min Rain = 0
KSM2 131305Z 03007KT 21/19 A3006 RMK A01 T02120186  RH  085%=      5-min Rain = 0
KSM2 131306Z 02007KT 21/19 A3006 RMK A01 T02120187  RH  085%=      5-min Rain = 0
KSM2 131307Z 02009KT 21/19 A3006 RMK A01 T02130187  RH  085%=      5-min Rain = 0
KSM2 131308Z 02009KT 21/19 A3006 RMK A01 T02130187  RH  085%=      5-min Rain = 0
KSM2 131309Z 02009KT 21/19 A3006 RMK A01 T02120187  RH  085%=      5-min Rain = 0
KSM2 131310Z 02009KT 21/19 A3006 RMK A01 T02120187  RH  085%=      5-min Rain = 0
KSM2 131311Z 02009KT 21/19 A3006 RMK A01 T02120187  RH  085%=      5-min Rain = 0
KSM2 131312Z 02009KT 21/19 A3006 RMK A01 T02120186  RH  085%=      5-min Rain = 0
KSM2 131313Z 03009KT 21/19 A3006 RMK A01 T02120186  RH  085%=      5-min Rain = 0
KSM2 131314Z 04010KT 21/19 A3006 RMK A01 T02120187  RH  085%=      5-min Rain = 0
KSM2 131315Z 04010KT 21/19 A3006 RMK A01 T02120187  RH  085%=      5-min Rain = 0
KSM2 131316Z 03008KT 21/19 A3007 RMK A01 T02130187  RH  085%=      5-min Rain = 0
KSM2 131317Z 03009KT 21/19 A3007 RMK A01 T02140187  RH  085%=      5-min Rain = 0
KSM2 131318Z 03011KT 22/19 A3007 RMK A01 T02150187  RH  084%=      5-min Rain = 0
KSM2 131319Z 03009KT 22/19 A3007 RMK A01 T02150187  RH  084%=      5-min Rain = 0
KSM2 131320Z 04008KT 22/19 A3007 RMK A01 T02150187  RH  084%=      5-min Rain = 0
KSM2 131321Z 03007KT 22/19 A3007 RMK A01 T02150188  RH  084%=      5-min Rain = 0
KSM2 131322Z 02008KT 22/19 A3007 RMK A01 T02160187  RH  083%=      5-min Rain = 0
KSM2 131323Z 02008KT 22/19 A3007 RMK A01 T02170187  RH  084%=      5-min Rain = 0
KSM2 131324Z 02009KT 22/19 A3007 RMK A01 T02160187  RH  084%=      5-min Rain = 0
KSM2 131325Z 03008KT 22/19 A3007 RMK A01 T02150187  RH  084%=      5-min Rain = 0
KSM2 131326Z 02008KT 22/19 A3007 RMK A01 T02150187  RH  084%=      5-min Rain = 0
KSM2 131327Z 03008KT 22/19 A3007 RMK A01 T02150187  RH  084%=      5-min Rain = 0
KSM2 131328Z 03010KT 22/19 A3007 RMK A01 T02160187  RH  084%=      5-min Rain = 0
KSM2 131329Z 03009KT 22/19 A3007 RMK A01 T02170187  RH  083%=      5-min Rain = 0
KSM2 131330Z 04009KT 22/19 A3007 RMK A01 T02180188  RH  083%=      5-min Rain = 0
KSM2 131331Z 03008KT 22/19 A3007 RMK A01 T02180187  RH  083%=      5-min Rain = 0
KSM2 131332Z 03006KT 22/19 A3007 RMK A01 T02180188  RH  083%=      5-min Rain = 0
KSM2 131333Z 03007KT 22/19 A3007 RMK A01 T02210189  RH  082%=      5-min Rain = 0
KSM2 131334Z 02009KT 22/19 A3007 RMK A01 T02220188  RH  081%=      5-min Rain = 0
KSM2 131335Z 02008KT 22/19 A3007 RMK A01 T02210187  RH  081%=      5-min Rain = 0
KSM2 131336Z 02008KT 22/19 A3007 RMK A01 T02210188  RH  082%=      5-min Rain = 0
KSM2 131337Z 02010KT 22/19 A3007 RMK A01 T02210187  RH  081%=      5-min Rain = 0
KSM2 131338Z 02009KT 22/19 A3007 RMK A01 T02190187  RH  082%=      5-min Rain = 0
KSM2 131339Z 03008KT 22/19 A3007 RMK A01 T02190188  RH  082%=      5-min Rain = 0
KSM2 131340Z 03009KT 22/19 A3007 RMK A01 T02200188  RH  082%=      5-min Rain = 0
KSM2 131341Z 04010KT 22/19 A3007 RMK A01 T02220188  RH  081%=      5-min Rain = 0
KSM2 131342Z 02009KT 22/19 A3008 RMK A01 T02230187  RH  080%=      5-min Rain = 0
KSM2 131343Z 03009KT 22/19 A3008 RMK A01 T02220188  RH  081%=      5-min Rain = 0
KSM2 131344Z 02010KT 22/19 A3008 RMK A01 T02220187  RH  081%=      5-min Rain = 0
KSM2 131345Z 03009KT 22/19 A3008 RMK A01 T02220187  RH  081%=      5-min Rain = 0
KSM2 131346Z 04011KT 22/19 A3008 RMK A01 T02220188  RH  081%=      5-min Rain = 0
KSM2 131347Z 04010KT 22/19 A3008 RMK A01 T02240188  RH  080%=      5-min Rain = 0
KSM2 131348Z 04009KT 22/19 A3008 RMK A01 T02240187  RH  080%=      5-min Rain = 0
KSM2 131349Z 04009KT 23/19 A3008 RMK A01 T02250188  RH  080%=      5-min Rain = 0
KSM2 131350Z 02009KT 23/19 A3008 RMK A01 T02250188  RH  080%=      5-min Rain = 0
KSM2 131351Z 03009KT 23/19 A3008 RMK A01 T02250187  RH  079%=      5-min Rain = 0
KSM2 131352Z 03010KT 23/19 A3008 RMK A01 T02250188  RH  079%=      5-min Rain = 0
KSM2 131353Z 04009KT 23/19 A3008 RMK A01 T02260188  RH  079%=      5-min Rain = 0
KSM2 131354Z 03009KT 23/19 A3008 RMK A01 T02280189  RH  079%=      5-min Rain = 0
KSM2 131355Z 03010KT 23/19 A3008 RMK A01 T02290188  RH  078%=      5-min Rain = 0
KSM2 131356Z 04008KT 23/19 A3008 RMK A01 T02290188  RH  078%=      5-min Rain = 0
KSM2 131357Z 04007KT 23/19 A3008 RMK A01 T02280189  RH  079%=      5-min Rain = 0
KSM2 131358Z 03010KT 23/19 A3008 RMK A01 T02290189  RH  078%=      5-min Rain = 0
KSM2 131359Z 03009KT 23/19 A3008 RMK A01 T02290188  RH  077%=      5-min Rain = 0
KSM2 131400Z 03008KT 23/19 A3008 RMK A01 T02280188  RH  078%=      5-min Rain = 0
KSM2 131401Z 03008KT 23/19 A3008 RMK A01 T02290188  RH  078%=      5-min Rain = 0
KSM2 131402Z 03009KT 23/19 A3008 RMK A01 T02310188  RH  077%=      5-min Rain = 0
KSM2 131403Z 03010KT 23/19 A3008 RMK A01 T02300188  RH  077%=      5-min Rain = 0
KSM2 131404Z 03009KT 23/19 A3008 RMK A01 T02290187  RH  077%=      5-min Rain = 0
KSM2 131405Z 04009KT 23/19 A3008 RMK A01 T02280187  RH  078%=      5-min Rain = 0
KSM2 131406Z 03011KT 23/19 A3008 RMK A01 T02280188  RH  078%=      5-min Rain = 0
KSM2 131407Z 03009KT 23/19 A3008 RMK A01 T02280187  RH  078%=      5-min Rain = 0
KSM2 131408Z 03009KT 23/19 A3008 RMK A01 T02280188  RH  078%=      5-min Rain = 0
KSM2 131409Z 03011KT 23/19 A3008 RMK A01 T02300187  RH  077%=      5-min Rain = 0
KSM2 131410Z 03011KT 23/19 A3008 RMK A01 T02300187  RH  077%=      5-min Rain = 0
KSM2 131411Z 04010KT 23/19 A3008 RMK A01 T02310187  RH  076%=      5-min Rain = 0
KSM2 131412Z 04011KT 23/19 A3008 RMK A01 T02320188  RH  076%=      5-min Rain = 0
KSM2 131413Z 04008KT 23/19 A3008 RMK A01 T02320188  RH  076%=      5-min Rain = 0
KSM2 131414Z 03008KT 23/19 A3008 RMK A01 T02340189  RH  076%=      5-min Rain = 0
KSM2 131415Z 03010KT 24/19 A3008 RMK A01 T02370189  RH  074%=      5-min Rain = 0
KSM2 131416Z 03010KT 24/19 A3008 RMK A01 T02370188  RH  074%=      5-min Rain = 0
KSM2 131417Z 03012KT 24/19 A3008 RMK A01 T02350187  RH  075%=      5-min Rain = 0
KSM2 131418Z 04010KT 23/19 A3008 RMK A01 T02340188  RH  075%=      5-min Rain = 0
KSM2 131419Z 04009KT 23/19 A3008 RMK A01 T02340188  RH  075%=      5-min Rain = 0
KSM2 131420Z 04012KT 24/19 A3008 RMK A01 T02350187  RH  075%=      5-min Rain = 0
KSM2 131421Z 04011KT 24/19 A3008 RMK A01 T02360188  RH  074%=      5-min Rain = 0
KSM2 131422Z 04010KT 24/19 A3008 RMK A01 T02360188  RH  074%=      5-min Rain = 0
KSM2 131423Z 04011KT 24/19 A3008 RMK A01 T02390189  RH  073%=      5-min Rain = 0
KSM2 131424Z 04010KT 24/19 A3008 RMK A01 T02380189  RH  074%=      5-min Rain = 0
KSM2 131425Z 04012KT 24/19 A3008 RMK A01 T02380189  RH  074%=      5-min Rain = 0
KSM2 131426Z 03009KT 24/19 A3008 RMK A01 T02370187  RH  074%=      5-min Rain = 0
KSM2 131427Z 04009KT 24/19 A3008 RMK A01 T02360188  RH  075%=      5-min Rain = 0
KSM2 131428Z 03010KT 24/19 A3008 RMK A01 T02380189  RH  074%=      5-min Rain = 0
KSM2 131429Z 04011KT 24/19 A3008 RMK A01 T02410189  RH  072%=      5-min Rain = 0
KSM2 131430Z 04010KT 24/19 A3008 RMK A01 T02400188  RH  073%=      5-min Rain = 0
KSM2 131431Z 03011KT 24/19 A3008 RMK A01 T02380188  RH  074%=      5-min Rain = 0
KSM2 131432Z 03012KT 24/19 A3008 RMK A01 T02400188  RH  073%=      5-min Rain = 0
KSM2 131433Z 04012KT 24/19 A3008 RMK A01 T02410188  RH  072%=      5-min Rain = 0
KSM2 131434Z 04012KT 24/19 A3008 RMK A01 T02420188  RH  072%=      5-min Rain = 0
KSM2 131435Z 04010KT 24/19 A3008 RMK A01 T02420188  RH  072%=      5-min Rain = 0
KSM2 131436Z 03012KT 24/19 A3008 RMK A01 T02420189  RH  072%=      5-min Rain = 0
KSM2 131437Z 04009KT 24/19 A3008 RMK A01 T02430189  RH  072%=      5-min Rain = 0
KSM2 131438Z 04012KT 24/19 A3008 RMK A01 T02440188  RH  071%=      5-min Rain = 0
KSM2 131439Z 05011KT 24/19 A3008 RMK A01 T02430188  RH  071%=      5-min Rain = 0
KSM2 131440Z 05010KT 24/19 A3008 RMK A01 T02400189  RH  073%=      5-min Rain = 0
KSM2 131441Z 04010KT 24/19 A3008 RMK A01 T02400188  RH  073%=      5-min Rain = 0
KSM2 131442Z 04011KT 24/19 A3008 RMK A01 T02420188  RH  072%=      5-min Rain = 0
KSM2 131443Z 04009KT 24/19 A3008 RMK A01 T02430189  RH  072%=      5-min Rain = 0
KSM2 131444Z 04009KT 25/19 A3008 RMK A01 T02450189  RH  071%=      5-min Rain = 0
KSM2 131445Z 06008KT 25/19 A3008 RMK A01 T02470189  RH  070%=      5-min Rain = 0
KSM2 131446Z 05010KT 25/19 A3008 RMK A01 T02480189  RH  070%=      5-min Rain = 0
KSM2 131447Z 05008KT 25/19 A3008 RMK A01 T02470189  RH  070%=      5-min Rain = 0
KSM2 131448Z 06008KT 25/19 A3008 RMK A01 T02460189  RH  071%=      5-min Rain = 0
KSM2 131449Z 06007KT 25/19 A3008 RMK A01 T02470188  RH  070%=      5-min Rain = 0
KSM2 131450Z 05007G13KT 25/19 A3008 RMK A01 T02470188  RH  070%=      5-min Rain = 0
KSM2 131451Z 06011KT 25/19 A3008 RMK A01 T02470189  RH  070%=      5-min Rain = 0
KSM2 131452Z 06011KT 25/19 A3008 RMK A01 T02460189  RH  070%=      5-min Rain = 0
KSM2 131453Z 05008KT 25/19 A3009 RMK A01 T02450188  RH  071%=      5-min Rain = 0
KSM2 131454Z 04009KT 24/19 A3008 RMK A01 T02440189  RH  071%=      5-min Rain = 0
KSM2 131455Z 05009KT 25/19 A3009 RMK A01 T02470190  RH  070%=      5-min Rain = 0
KSM2 131456Z 06010KT 25/19 A3009 RMK A01 T02490189  RH  069%=      5-min Rain = 0
KSM2 131457Z 06009KT 25/19 A3009 RMK A01 T02480189  RH  070%=      5-min Rain = 0
KSM2 131458Z 05008KT 25/19 A3009 RMK A01 T02470188  RH  070%=      5-min Rain = 0
KSM2 131459Z 05010KT 25/19 A3009 RMK A01 T02470189  RH  070%=      5-min Rain = 0
KSM2 131500Z 05009KT 25/19 A3009 RMK A01 T02510189  RH  068%=      5-min Rain = 0
KSM2 131501Z 04011KT 25/19 A3009 RMK A01 T02510189  RH  069%=      5-min Rain = 0
KSM2 131502Z 04009KT 25/19 A3009 RMK A01 T02520189  RH  068%=      5-min Rain = 0
KSM2 131503Z 05008KT 25/19 A3009 RMK A01 T02530189  RH  068%=      5-min Rain = 0
KSM2 131504Z 04010KT 25/19 A3009 RMK A01 T02520190  RH  069%=      5-min Rain = 0
KSM2 131505Z 04009KT 25/19 A3009 RMK A01 T02520189  RH  068%=      5-min Rain = 0
KSM2 131506Z 04011KT 25/19 A3009 RMK A01 T02510190  RH  069%=      5-min Rain = 0
KSM2 131507Z 06010KT 25/19 A3009 RMK A01 T02510190  RH  068%=      5-min Rain = 0
KSM2 131508Z 06008KT 25/19 A3009 RMK A01 T02510190  RH  069%=      5-min Rain = 0
KSM2 131509Z 06008KT 25/19 A3009 RMK A01 T02510190  RH  069%=      5-min Rain = 0
KSM2 131510Z 05007KT 25/19 A3009 RMK A01 T02500189  RH  069%=      5-min Rain = 0
KSM2 131511Z 04011KT 25/19 A3009 RMK A01 T02510189  RH  069%=      5-min Rain = 0
KSM2 131512Z 05010KT 25/19 A3009 RMK A01 T02540190  RH  068%=      5-min Rain = 0
KSM2 131513Z 03010KT 26/19 A3009 RMK A01 T02550189  RH  067%=      5-min Rain = 0
KSM2 131514Z 04008KT 26/19 A3009 RMK A01 T02550189  RH  067%=      5-min Rain = 0
KSM2 131515Z 04010KT 26/19 A3009 RMK A01 T02550190  RH  067%=      5-min Rain = 0
KSM2 131516Z 04010KT 26/19 A3009 RMK A01 T02570190  RH  066%=      5-min Rain = 0
KSM2 131517Z 05009KT 26/19 A3009 RMK A01 T02570190  RH  066%=      5-min Rain = 0
KSM2 131518Z 05010KT 26/19 A3009 RMK A01 T02550190  RH  068%=      5-min Rain = 0
KSM2 131519Z 04011KT 25/19 A3009 RMK A01 T02540190  RH  068%=      5-min Rain = 0
KSM2 131520Z 05009KT 25/19 A3009 RMK A01 T02540190  RH  068%=      5-min Rain = 0
KSM2 131521Z 05006KT 25/19 A3009 RMK A01 T02530191  RH  068%=      5-min Rain = 0
KSM2 131522Z 06006KT 26/19 A3009 RMK A01 T02550190  RH  067%=      5-min Rain = 0
KSM2 131523Z 06007KT 26/19 A3009 RMK A01 T02580191  RH  066%=      5-min Rain = 0
KSM2 131524Z 05008KT 26/19 A3009 RMK A01 T02610190  RH  065%=      5-min Rain = 0
KSM2 131525Z 05007KT 26/19 A3009 RMK A01 T02590190  RH  066%=      5-min Rain = 0
KSM2 131526Z 06006G11KT 26/19 A3009 RMK A01 T02570190  RH  066%=      5-min Rain = 0
KSM2 131527Z 04011KT 26/19 A3009 RMK A01 T02580189  RH  066%=      5-min Rain = 0
KSM2 131528Z 06010KT 26/19 A3009 RMK A01 T02600189  RH  065%=      5-min Rain = 0
KSM2 131529Z 06009KT 26/19 A3009 RMK A01 T02600189  RH  065%=      5-min Rain = 0
KSM2 131530Z 05008KT 26/19 A3009 RMK A01 T02580189  RH  066%=      5-min Rain = 0
KSM2 131531Z 06007KT 26/19 A3009 RMK A01 T02570189  RH  066%=      5-min Rain = 0
KSM2 131532Z 06006KT 26/19 A3009 RMK A01 T02590190  RH  066%=      5-min Rain = 0
KSM2 131533Z 05008KT 26/19 A3009 RMK A01 T02620190  RH  065%=      5-min Rain = 0
KSM2 131534Z 04009KT 26/19 A3009 RMK A01 T02630189  RH  064%=      5-min Rain = 0
KSM2 131535Z 04008KT 26/19 A3009 RMK A01 T02610189  RH  064%=      5-min Rain = 0
KSM2 131536Z 06008KT 26/19 A3009 RMK A01 T02610190  RH  065%=      5-min Rain = 0
KSM2 131537Z 06011KT 26/19 A3009 RMK A01 T02630189  RH  064%=      5-min Rain = 0
KSM2 131538Z 06009KT 26/19 A3009 RMK A01 T02630188  RH  063%=      5-min Rain = 0
KSM2 131539Z 05009KT 26/19 A3009 RMK A01 T02630188  RH  063%=      5-min Rain = 0
KSM2 131540Z 05007KT 26/19 A3009 RMK A01 T02630187  RH  063%=      5-min Rain = 0
KSM2 131541Z 04008G14KT 26/19 A3009 RMK A01 T02630188  RH  063%=      5-min Rain = 0
KSM2 131542Z 04010KT 26/19 A3009 RMK A01 T02640187  RH  062%=      5-min Rain = 0
KSM2 131543Z 05007KT 26/19 A3009 RMK A01 T02640189  RH  064%=      5-min Rain = 0
KSM2 131544Z 04009KT 27/19 A3009 RMK A01 T02650189  RH  063%=      5-min Rain = 0
KSM2 131545Z 04008KT 27/19 A3009 RMK A01 T02660188  RH  062%=      5-min Rain = 0
KSM2 131546Z 04009KT 27/19 A3009 RMK A01 T02660189  RH  063%=      5-min Rain = 0
KSM2 131547Z 05009KT 27/19 A3009 RMK A01 T02690190  RH  062%=      5-min Rain = 0
KSM2 131548Z 04009KT 27/19 A3009 RMK A01 T02690190  RH  062%=      5-min Rain = 0
KSM2 131549Z 06006KT 27/19 A3009 RMK A01 T02690191  RH  062%=      5-min Rain = 0
KSM2 131550Z 05008KT 27/19 A3009 RMK A01 T02720191  RH  061%=      5-min Rain = 0
KSM2 131551Z 05010KT 28/19 A301 RMK A01 T02750189  RH  059%=      5-min Rain = 0
KSM2 131552Z 05008KT 27/19 A301 RMK A01 T02730189  RH  060%=      5-min Rain = 0
KSM2 131553Z 07006KT 27/19 A301 RMK A01 T02720190  RH  061%=      5-min Rain = 0
KSM2 131554Z 07005KT 27/19 A301 RMK A01 T02730190  RH  061%=      5-min Rain = 0
KSM2 131555Z 06006KT 27/19 A301 RMK A01 T02740190  RH  060%=      5-min Rain = 0
KSM2 131556Z 04011KT 28/19 A301 RMK A01 T02750191  RH  060%=      5-min Rain = 0
KSM2 131557Z 04011KT 28/19 A301 RMK A01 T02770190  RH  059%=      5-min Rain = 0
KSM2 131558Z 04010KT 28/19 A301 RMK A01 T02770189  RH  059%=      5-min Rain = 0
KSM2 131559Z 06007KT 28/19 A301 RMK A01 T02750190  RH  060%=      5-min Rain = 0
KSM2 131600Z 07006KT 27/19 A301 RMK A01 T02710189  RH  061%=      5-min Rain = 0
KSM2 131601Z 06008KT 27/19 A301 RMK A01 T02690189  RH  062%=      5-min Rain = 0
KSM2 131602Z 07007KT 27/19 A301 RMK A01 T02700188  RH  061%=      5-min Rain = 0
KSM2 131603Z 06007KT 27/19 A301 RMK A01 T02730188  RH  060%=      5-min Rain = 0
KSM2 131604Z 05008KT 28/19 A301 RMK A01 T02750188  RH  059%=      5-min Rain = 0
KSM2 131605Z 06007KT 27/19 A301 RMK A01 T02740190  RH  060%=      5-min Rain = 0
KSM2 131606Z 05009KT 27/19 A301 RMK A01 T02730190  RH  060%=      5-min Rain = 0
KSM2 131607Z 06007KT 27/19 A301 RMK A01 T02710189  RH  061%=      5-min Rain = 0
KSM2 131608Z 06006KT 27/19 A301 RMK A01 T02710191  RH  062%=      5-min Rain = 0
KSM2 131609Z 05007KT 27/19 A301 RMK A01 T02740191  RH  060%=      5-min Rain = 0
KSM2 131610Z 04011KT 28/19 A301 RMK A01 T02780189  RH  058%=      5-min Rain = 0
KSM2 131611Z 04010KT 28/19 A301 RMK A01 T02810187  RH  057%=      5-min Rain = 0
KSM2 131612Z 04009KT 28/19 A301 RMK A01 T02790187  RH  057%=      5-min Rain = 0
KSM2 131613Z 05012KT 28/19 A301 RMK A01 T02770188  RH  058%=      5-min Rain = 0
KSM2 131614Z 04010KT 28/19 A301 RMK A01 T02750187  RH  059%=      5-min Rain = 0
KSM2 131615Z 04010KT 27/19 A301 RMK A01 T02740187  RH  059%=      5-min Rain = 0
KSM2 131616Z 04010KT 28/19 A301 RMK A01 T02770186  RH  058%=      5-min Rain = 0
KSM2 131617Z 03010KT 28/19 A301 RMK A01 T02780185  RH  057%=      5-min Rain = 0
KSM2 131618Z 03010G16KT 28/19 A301 RMK A01 T02780187  RH  058%=      5-min Rain = 0
KSM2 131619Z 04011G17KT 28/19 A301 RMK A01 T02790188  RH  058%=      5-min Rain = 0
KSM2 131620Z 04008KT 28/19 A301 RMK A01 T02780188  RH  058%=      5-min Rain = 0
KSM2 131621Z 05007KT 28/19 A301 RMK A01 T02750189  RH  059%=      5-min Rain = 0
KSM2 131622Z 07005KT 28/19 A3011 RMK A01 T02750189  RH  059%=      5-min Rain = 0
KSM2 131623Z 05010KT 28/19 A3011 RMK A01 T02790189  RH  058%=      5-min Rain = 0
KSM2 131624Z 03011KT 28/18 A301 RMK A01 T02800183  RH  056%=      5-min Rain = 0
KSM2 131625Z 05011KT 28/18 A301 RMK A01 T02830184  RH  055%=      5-min Rain = 0
KSM2 131626Z 05008KT 28/18 A3011 RMK A01 T02840184  RH  055%=      5-min Rain = 0
KSM2 131627Z 04010KT 28/19 A3011 RMK A01 T02830186  RH  056%=      5-min Rain = 0
KSM2 131628Z 04009KT 28/19 A3011 RMK A01 T02820186  RH  056%=      5-min Rain = 0
KSM2 131629Z 03010KT 28/19 A3011 RMK A01 T02810186  RH  056%=      5-min Rain = 0
KSM2 131630Z 06010KT 29/19 A3011 RMK A01 T02850189  RH  056%=      5-min Rain = 0
KSM2 131631Z 05010KT 29/19 A3011 RMK A01 T02880188  RH  055%=      5-min Rain = 0
KSM2 131632Z 04009KT 28/19 A3011 RMK A01 T02830187  RH  056%=      5-min Rain = 0
KSM2 131633Z 06006KT 28/19 A3011 RMK A01 T02780186  RH  057%=      5-min Rain = 0
KSM2 131634Z 05007KT 28/19 A3011 RMK A01 T02800188  RH  058%=      5-min Rain = 0
KSM2 131635Z 04010KT 29/19 A3011 RMK A01 T02850187  RH  055%=      5-min Rain = 0
KSM2 131636Z 04012KT 29/19 A3011 RMK A01 T02850185  RH  055%=      5-min Rain = 0
KSM2 131637Z 03009KT 28/19 A3011 RMK A01 T02810185  RH  056%=      5-min Rain = 0
KSM2 131638Z 03010KT 28/19 A3011 RMK A01 T02800186  RH  057%=      5-min Rain = 0
KSM2 131639Z 05009KT 28/19 A3011 RMK A01 T02840187  RH  056%=      5-min Rain = 0
KSM2 131640Z 07008KT 29/19 A3011 RMK A01 T02860185  RH  054%=      5-min Rain = 0
KSM2 131641Z 06007KT 28/19 A3011 RMK A01 T02840186  RH  055%=      5-min Rain = 0
KSM2 131642Z 06008G14KT 28/19 A3011 RMK A01 T02830186  RH  056%=      5-min Rain = 0
KSM2 131643Z 06011KT 29/18 A3011 RMK A01 T02850183  RH  054%=      5-min Rain = 0
KSM2 131644Z 06009KT 29/19 A3011 RMK A01 T02850185  RH  055%=      5-min Rain = 0
KSM2 131645Z 06010KT 29/19 A3011 RMK A01 T02850186  RH  055%=      5-min Rain = 0
KSM2 131646Z 05009KT 29/18 A3011 RMK A01 T02850184  RH  054%=      5-min Rain = 0
KSM2 131647Z 05007KT 28/18 A3011 RMK A01 T02840184  RH  055%=      5-min Rain = 0
KSM2 131648Z 05011KT 29/19 A3011 RMK A01 T02860186  RH  055%=      5-min Rain = 0
KSM2 131649Z 06011KT 29/19 A3011 RMK A01 T02900188  RH  054%=      5-min Rain = 0
KSM2 131650Z 06012KT 29/19 A3011 RMK A01 T02920186  RH  053%=      5-min Rain = 0
KSM2 131651Z 05010KT 29/19 A3011 RMK A01 T02900186  RH  054%=      5-min Rain = 0
KSM2 131652Z 06008KT 29/19 A3011 RMK A01 T02890186  RH  054%=      5-min Rain = 0
KSM2 131653Z 07009KT 29/19 A3011 RMK A01 T02880186  RH  054%=      5-min Rain = 0
KSM2 131654Z 05006KT 29/19 A3011 RMK A01 T02880186  RH  054%=      5-min Rain = 0
KSM2 131655Z 06006KT 29/19 A3011 RMK A01 T02880186  RH  054%=      5-min Rain = 0
KSM2 131656Z 05008KT 29/19 A3011 RMK A01 T02870185  RH  054%=      5-min Rain = 0
KSM2 131657Z 04010KT 29/19 A3011 RMK A01 T02880186  RH  054%=      5-min Rain = 0
KSM2 131658Z 05011KT 29/19 A3011 RMK A01 T02930187  RH  053%=      5-min Rain = 0
KSM2 131659Z 04011KT 30/19 A3011 RMK A01 T02960186  RH  051%=      5-min Rain = 0
KSM2 131700Z 04009KT 30/18 A3011 RMK A01 T02980184  RH  050%=      5-min Rain = 0
KSM2 131701Z 04011KT 30/18 A3011 RMK A01 T02980184  RH  050%=      5-min Rain = 0
KSM2 131702Z 05010KT 30/18 A3011 RMK A01 T02980184  RH  050%=      5-min Rain = 0
KSM2 131703Z 03012KT 30/19 A3011 RMK A01 T02980187  RH  051%=      5-min Rain = 0
KSM2 131704Z 04011KT 30/19 A3011 RMK A01 T03030186  RH  050%=      5-min Rain = 0
KSM2 131705Z 05010KT 30/19 A3011 RMK A01 T03020186  RH  050%=      5-min Rain = 0
KSM2 131706Z 06010KT 30/19 A3011 RMK A01 T02990185  RH  050%=      5-min Rain = 0
KSM2 131707Z 07008KT 30/19 A3011 RMK A01 T02950185  RH  052%=      5-min Rain = 0
KSM2 131708Z 07009KT 30/19 A3011 RMK A01 T02950186  RH  052%=      5-min Rain = 0
KSM2 131709Z 06009KT 30/19 A3011 RMK A01 T02960187  RH  052%=      5-min Rain = 0
KSM2 131710Z 06008KT 30/19 A3011 RMK A01 T02970187  RH  052%=      5-min Rain = 0
KSM2 131711Z 07011KT 30/19 A3011 RMK A01 T02970187  RH  052%=      5-min Rain = 0
KSM2 131712Z 05012KT 30/19 A3011 RMK A01 T02960186  RH  052%=      5-min Rain = 0
KSM2 131713Z 05011KT 30/19 A3011 RMK A01 T02960185  RH  051%=      5-min Rain = 0
KSM2 131714Z 04010KT 30/19 A3011 RMK A01 T02950185  RH  052%=      5-min Rain = 0
KSM2 131715Z 05009KT 30/19 A3011 RMK A01 T02950185  RH  051%=      5-min Rain = 0
KSM2 131716Z 05011G16KT 29/18 A3011 RMK A01 T02930184  RH  052%=      5-min Rain = 0
KSM2 131717Z 04010KT 29/19 A3011 RMK A01 T02910185  RH  053%=      5-min Rain = 0
KSM2 131718Z 04012KT 30/19 A3011 RMK A01 T02950185  RH  052%=      5-min Rain = 0
KSM2 131719Z 05012KT 30/19 A3011 RMK A01 T02970186  RH  051%=      5-min Rain = 0
KSM2 131720Z 06014KT 30/19 A3011 RMK A01 T03000187  RH  051%=      5-min Rain = 0
KSM2 131721Z 05009KT 30/19 A3011 RMK A01 T02990187  RH  051%=      5-min Rain = 0
KSM2 131722Z 06009KT 30/19 A3011 RMK A01 T02990186  RH  051%=      5-min Rain = 0
KSM2 131723Z 04010KT 30/19 A3011 RMK A01 T02990186  RH  051%=      5-min Rain = 0
KSM2 131724Z 05008KT 30/19 A3011 RMK A01 T03010186  RH  050%=      5-min Rain = 0
KSM2 131725Z 06011G16KT 30/19 A3011 RMK A01 T03020186  RH  050%=      5-min Rain = 0
KSM2 131726Z 06011KT 30/19 A3011 RMK A01 T03010186  RH  050%=      5-min Rain = 0
KSM2 131727Z 06012KT 30/18 A3011 RMK A01 T03000184  RH  050%=      5-min Rain = 0
KSM2 131728Z 04011KT 30/19 A3011 RMK A01 T03000185  RH  050%=      5-min Rain = 0
KSM2 131729Z 04010KT 30/18 A3011 RMK A01 T02980184  RH  050%=      5-min Rain = 0
KSM2 131730Z 04009KT 30/19 A3011 RMK A01 T02970185  RH  051%=      5-min Rain = 0
KSM2 131731Z 03013G18KT 30/19 A3011 RMK A01 T02980185  RH  050%=      5-min Rain = 0
KSM2 131732Z 03015KT 30/18 A301 RMK A01 T03020183  RH  049%=      5-min Rain = 0
KSM2 131733Z 03012KT 30/18 A3011 RMK A01 T03030184  RH  049%=      5-min Rain = 0
KSM2 131734Z 04012KT 31/19 A301 RMK A01 T03060185  RH  048%=      5-min Rain = 0
KSM2 131735Z 06013KT 31/19 A3011 RMK A01 T03090186  RH  048%=      5-min Rain = 0
KSM2 131736Z 05008KT 31/18 A3011 RMK A01 T03070183  RH  048%=      5-min Rain = 0
KSM2 131737Z 05010KT 30/18 A3011 RMK A01 T03030184  RH  049%=      5-min Rain = 0
KSM2 131738Z 05009KT 30/19 A3011 RMK A01 T03010185  RH  050%=      5-min Rain = 0
KSM2 131739Z 04008G13KT 30/19 A3011 RMK A01 T03030186  RH  050%=      5-min Rain = 0
KSM2 131740Z 03011KT 31/18 A3011 RMK A01 T03070184  RH  048%=      5-min Rain = 0
KSM2 131741Z 04008KT 31/18 A3011 RMK A01 T03080184  RH  048%=      5-min Rain = 0
KSM2 131742Z 06013KT 31/19 A3011 RMK A01 T03070186  RH  048%=      5-min Rain = 0
KSM2 131743Z 06012KT 31/18 A3011 RMK A01 T03080184  RH  047%=      5-min Rain = 0
KSM2 131744Z 06010KT 31/18 A3011 RMK A01 T03050182  RH  048%=      5-min Rain = 0
KSM2 131745Z 06010G15KT 30/18 A3011 RMK A01 T03010183  RH  049%=      5-min Rain = 0
KSM2 131746Z 04011KT 30/19 A3011 RMK A01 T03030185  RH  049%=      5-min Rain = 0
KSM2 131747Z 05013G18KT 31/19 A301 RMK A01 T03080186  RH  048%=      5-min Rain = 0
KSM2 131748Z 06012KT 31/19 A3011 RMK A01 T03140187  RH  047%=      5-min Rain = 0
KSM2 131749Z 06014KT 32/19 A3011 RMK A01 T03170185  RH  046%=      5-min Rain = 0
KSM2 131750Z 05014KT 31/18 A3011 RMK A01 T03140184  RH  046%=      5-min Rain = 0
KSM2 131751Z 05011KT 31/18 A3011 RMK A01 T03090183  RH  047%=      5-min Rain = 0
KSM2 131752Z 05011KT 31/18 A3011 RMK A01 T03070183  RH  047%=      5-min Rain = 0
KSM2 131753Z 04011KT 31/18 A3011 RMK A01 T03080183  RH  047%=      5-min Rain = 0
KSM2 131754Z 04011G16KT 31/18 A3011 RMK A01 T03100183  RH  047%=      5-min Rain = 0
KSM2 131755Z 05012KT 31/18 A3011 RMK A01 T03100182  RH  046%=      5-min Rain = 0
KSM2 131756Z 06011KT 31/18 A3011 RMK A01 T03070181  RH  047%=      5-min Rain = 0
KSM2 131757Z 06013G20KT 31/18 A3011 RMK A01 T03060181  RH  047%=      5-min Rain = 0
KSM2 131758Z 07017KT 31/18 A3011 RMK A01 T03050181  RH  047%=      5-min Rain = 0
KSM2 131759Z 07014KT 31/18 A3011 RMK A01 T03060181  RH  047%=      5-min Rain = 0
KSM2 131800Z 06012KT 31/18 A3011 RMK A01 T03080182  RH  047%=      5-min Rain = 0
KSM2 131801Z 04014KT 31/18 A301 RMK A01 T03080183  RH  047%=      5-min Rain = 0
KSM2 131802Z 06014KT 31/18 A3011 RMK A01 T03130184  RH  046%=      5-min Rain = 0
KSM2 131803Z 05012KT 31/18 A3011 RMK A01 T03140182  RH  045%=      5-min Rain = 0
KSM2 131804Z 05009KT 31/18 A3011 RMK A01 T03080182  RH  047%=      5-min Rain = 0
KSM2 131805Z 07011KT 31/18 A3011 RMK A01 T03080182  RH  047%=      5-min Rain = 0
KSM2 131806Z 08015KT 31/18 A3011 RMK A01 T03090182  RH  047%=      5-min Rain = 0
KSM2 131807Z 07016KT 31/18 A3011 RMK A01 T03110182  RH  046%=      5-min Rain = 0
KSM2 131808Z 06011KT 31/18 A3011 RMK A01 T03120182  RH  046%=      5-min Rain = 0
KSM2 131809Z 06013KT 31/18 A3011 RMK A01 T03120182  RH  046%=      5-min Rain = 0
KSM2 131810Z 07012KT 31/18 A3011 RMK A01 T03120183  RH  046%=      5-min Rain = 0
KSM2 131811Z 08010KT 31/18 A3011 RMK A01 T03120182  RH  046%=      5-min Rain = 0
KSM2 131812Z 06010KT 31/18 A3011 RMK A01 T03120183  RH  046%=      5-min Rain = 0
KSM2 131813Z 07012KT 31/18 A3011 RMK A01 T03130184  RH  046%=      5-min Rain = 0
KSM2 131814Z 08010KT 31/18 A3011 RMK A01 T03130183  RH  046%=      5-min Rain = 0
KSM2 131815Z 06006G12KT 31/18 A3011 RMK A01 T03130184  RH  046%=      5-min Rain = 0
KSM2 131816Z 06011KT 31/19 A3011 RMK A01 T03140185  RH  046%=      5-min Rain = 0
KSM2 131817Z 07012G19KT 32/19 A301 RMK A01 T03200185  RH  045%=      5-min Rain = 0
KSM2 131818Z 07015KT 32/18 A3011 RMK A01 T03220184  RH  044%=      5-min Rain = 0
KSM2 131819Z 06012KT 32/18 A3011 RMK A01 T03180184  RH  045%=      5-min Rain = 0
KSM2 131820Z 06010KT 32/19 A301 RMK A01 T03160185  RH  046%=      5-min Rain = 0
KSM2 131821Z 07010KT 32/19 A301 RMK A01 T03160185  RH  046%=      5-min Rain = 0
KSM2 131822Z 07012KT 32/19 A3011 RMK A01 T03200187  RH  045%=      5-min Rain = 0
KSM2 131823Z 07013KT 32/19 A301 RMK A01 T03240186  RH  044%=      5-min Rain = 0
KSM2 131824Z 07014KT 32/19 A3011 RMK A01 T03230186  RH  044%=      5-min Rain = 0
KSM2 131825Z 07010KT 32/19 A3011 RMK A01 T03220185  RH  044%=      5-min Rain = 0
KSM2 131826Z 05010KT 32/18 A3011 RMK A01 T03190184  RH  045%=      5-min Rain = 0
KSM2 131827Z 05011KT 31/18 A301 RMK A01 T03140183  RH  046%=      5-min Rain = 0
KSM2 131828Z 05013KT 31/18 A301 RMK A01 T03120184  RH  046%=      5-min Rain = 0
KSM2 131829Z 05013KT 32/18 A3011 RMK A01 T03150181  RH  045%=      5-min Rain = 0
KSM2 131830Z 03013KT 31/18 A3011 RMK A01 T03140182  RH  046%=      5-min Rain = 0
KSM2 131831Z 03012KT 31/18 A301 RMK A01 T03140182  RH  045%=      5-min Rain = 0
KSM2 131832Z 03013KT 31/18 A301 RMK A01 T03140182  RH  045%=      5-min Rain = 0
KSM2 131833Z 04012KT 31/18 A3011 RMK A01 T03120182  RH  046%=      5-min Rain = 0
KSM2 131834Z 07014KT 31/18 A3011 RMK A01 T03120182  RH  046%=      5-min Rain = 0
KSM2 131835Z 06012KT 31/18 A3011 RMK A01 T03120183  RH  046%=      5-min Rain = 0
KSM2 131836Z 07009G14KT 31/18 A3011 RMK A01 T03100182  RH  047%=      5-min Rain = 0
KSM2 131837Z 08010KT 31/18 A301 RMK A01 T03100184  RH  047%=      5-min Rain = 0
KSM2 131838Z 07007KT 31/18 A301 RMK A01 T03100183  RH  047%=      5-min Rain = 0
KSM2 131839Z 06009G16KT 31/18 A301 RMK A01 T03100184  RH  047%=      5-min Rain = 0
KSM2 131840Z 04012G17KT 32/18 A301 RMK A01 T03170184  RH  045%=      5-min Rain = 0
KSM2 131841Z 05013G18KT 33/18 A301 RMK A01 T03250184  RH  043%=      5-min Rain = 0
KSM2 131842Z 04017KT 33/18 A301 RMK A01 T03260183  RH  043%=      5-min Rain = 0
KSM2 131843Z 04018KT 33/18 A301 RMK A01 T03250184  RH  043%=      5-min Rain = 0
KSM2 131844Z 05015KT 32/18 A301 RMK A01 T03200182  RH  044%=      5-min Rain = 0
KSM2 131845Z 04016KT 32/18 A301 RMK A01 T03160182  RH  045%=      5-min Rain = 0
KSM2 131846Z 03013KT 31/18 A301 RMK A01 T03120181  RH  045%=      5-min Rain = 0
KSM2 131847Z 03011G17KT 31/18 A301 RMK A01 T03120180  RH  045%=      5-min Rain = 0
KSM2 131848Z 05011KT 31/18 A301 RMK A01 T03110181  RH  046%=      5-min Rain = 0
KSM2 131849Z 05010KT 31/18 A301 RMK A01 T03110181  RH  046%=      5-min Rain = 0
KSM2 131850Z 07013KT 31/18 A301 RMK A01 T03120181  RH  046%=      5-min Rain = 0
KSM2 131851Z 06010G15KT 32/18 A301 RMK A01 T03150180  RH  045%=      5-min Rain = 0
KSM2 131852Z 06014KT 32/18 A301 RMK A01 T03200180  RH  043%=      5-min Rain = 0
KSM2 131853Z 06014KT 32/18 A301 RMK A01 T03200180  RH  043%=      5-min Rain = 0
KSM2 131854Z 06012KT 32/18 A301 RMK A01 T03190180  RH  044%=      5-min Rain = 0
KSM2 131855Z 05014KT 32/18 A301 RMK A01 T03170181  RH  044%=      5-min Rain = 0
KSM2 131856Z 06016KT 32/18 A301 RMK A01 T03160182  RH  045%=      5-min Rain = 0
KSM2 131857Z 06017KT 32/18 A301 RMK A01 T03160182  RH  045%=      5-min Rain = 0
KSM2 131858Z 06013KT 32/18 A301 RMK A01 T03150184  RH  046%=      5-min Rain = 0
KSM2 131859Z 06014KT 32/18 A301 RMK A01 T03160182  RH  045%=      5-min Rain = 0
KSM2 131900Z 05011KT 32/18 A301 RMK A01 T03160182  RH  045%=      5-min Rain = 0
KSM2 131901Z 06014KT 32/18 A301 RMK A01 T03160184  RH  045%=      5-min Rain = 0
KSM2 131902Z 06010KT 32/18 A301 RMK A01 T03170183  RH  045%=      5-min Rain = 0
KSM2 131903Z 05011KT 32/18 A301 RMK A01 T03170183  RH  045%=      5-min Rain = 0
KSM2 131904Z 05009KT 32/18 A301 RMK A01 T03180180  RH  044%=      5-min Rain = 0
KSM2 131905Z 05015G20KT 32/18 A301 RMK A01 T03200182  RH  044%=      5-min Rain = 0
KSM2 131906Z 05016KT 33/18 A301 RMK A01 T03250178  RH  042%=      5-min Rain = 0
KSM2 131907Z 05015KT 32/18 A301 RMK A01 T03210178  RH  043%=      5-min Rain = 0
KSM2 131908Z 04012KT 32/18 A301 RMK A01 T03200179  RH  043%=      5-min Rain = 0
KSM2 131909Z 04011KT 32/18 A301 RMK A01 T03220179  RH  043%=      5-min Rain = 0
KSM2 131910Z 05015KT 32/18 A301 RMK A01 T03230179  RH  042%=      5-min Rain = 0
KSM2 131911Z 05012KT 32/18 A301 RMK A01 T03230178  RH  042%=      5-min Rain = 0
KSM2 131912Z 05013KT 32/18 A301 RMK A01 T03210177  RH  042%=      5-min Rain = 0
KSM2 131913Z 06012G17KT 32/18 A301 RMK A01 T03230180  RH  043%=      5-min Rain = 0
KSM2 131914Z 06013G18KT 33/18 A301 RMK A01 T03260180  RH  042%=      5-min Rain = 0
KSM2 131915Z 06014KT 32/18 A301 RMK A01 T03220179  RH  043%=      5-min Rain = 0
KSM2 131916Z 06012KT 32/18 A301 RMK A01 T03190180  RH  043%=      5-min Rain = 0
KSM2 131917Z 08010KT 32/18 A301 RMK A01 T03200180  RH  043%=      5-min Rain = 0
KSM2 131918Z 06011KT 32/18 A301 RMK A01 T03220179  RH  043%=      5-min Rain = 0
KSM2 131919Z 04015KT 32/18 A301 RMK A01 T03240177  RH  042%=      5-min Rain = 0
KSM2 131920Z 04017KT 33/18 A301 RMK A01 T03250179  RH  042%=      5-min Rain = 0
KSM2 131921Z 04020KT 32/18 A301 RMK A01 T03240180  RH  042%=      5-min Rain = 0
KSM2 131922Z 04016G23KT 32/18 A301 RMK A01 T03240179  RH  042%=      5-min Rain = 0
KSM2 131923Z 04016KT 32/18 A301 RMK A01 T03230180  RH  043%=      5-min Rain = 0
KSM2 131924Z 06011KT 32/18 A301 RMK A01 T03240181  RH  043%=      5-min Rain = 0
KSM2 131925Z 06016G23KT 33/18 A301 RMK A01 T03260182  RH  042%=      5-min Rain = 0
KSM2 131926Z 06015KT 32/18 A301 RMK A01 T03230179  RH  042%=      5-min Rain = 0
KSM2 131927Z 05014KT 32/18 A301 RMK A01 T03210180  RH  043%=      5-min Rain = 0
KSM2 131928Z 04014KT 32/18 A301 RMK A01 T03210181  RH  043%=      5-min Rain = 0
KSM2 131929Z 04013KT 33/18 A301 RMK A01 T03250182  RH  043%=      5-min Rain = 0
KSM2 131930Z 04010KT 33/18 A301 RMK A01 T03260182  RH  043%=      5-min Rain = 0
KSM2 131931Z 03011KT 33/18 A301 RMK A01 T03290181  RH  042%=      5-min Rain = 0
KSM2 131932Z 04010KT 33/18 A301 RMK A01 T03290183  RH  042%=      5-min Rain = 0
KSM2 131933Z 05012KT 33/18 A301 RMK A01 T03320184  RH  042%=      5-min Rain = 0
KSM2 131934Z 05014KT 33/18 A301 RMK A01 T03320183  RH  041%=      5-min Rain = 0
KSM2 131935Z 05010KT 32/18 A301 RMK A01 T03230182  RH  043%=      5-min Rain = 0
KSM2 131936Z 04016G22KT 32/18 A301 RMK A01 T03200183  RH  044%=      5-min Rain = 0
KSM2 131937Z 03015KT 33/18 A301 RMK A01 T03250182  RH  043%=      5-min Rain = 0
KSM2 131938Z 04016KT 33/18 A301 RMK A01 T03300181  RH  041%=      5-min Rain = 0
KSM2 131939Z 04015G20KT 33/18 A301 RMK A01 T03290182  RH  042%=      5-min Rain = 0
KSM2 131940Z 05017KT 33/18 A301 RMK A01 T03310179  RH  041%=      5-min Rain = 0
KSM2 131941Z 04014KT 33/18 A301 RMK A01 T03280177  RH  041%=      5-min Rain = 0
KSM2 131942Z 05013G18KT 33/18 A301 RMK A01 T03260177  RH  041%=      5-min Rain = 0
KSM2 131943Z 05011G16KT 32/18 A301 RMK A01 T03240177  RH  042%=      5-min Rain = 0
KSM2 131944Z 04014KT 32/18 A301 RMK A01 T03220177  RH  042%=      5-min Rain = 0
KSM2 131945Z 05011KT 33/18 A301 RMK A01 T03260179  RH  042%=      5-min Rain = 0
KSM2 131946Z 05010KT 33/18 A301 RMK A01 T03290182  RH  042%=      5-min Rain = 0
KSM2 131947Z 04013KT 33/18 A3009 RMK A01 T03310183  RH  041%=      5-min Rain = 0
KSM2 131948Z 04014KT 33/18 A3009 RMK A01 T03320182  RH  041%=      5-min Rain = 0
KSM2 131949Z 04013KT 33/18 A3009 RMK A01 T03320182  RH  041%=      5-min Rain = 0
KSM2 131950Z 04011KT 33/18 A3009 RMK A01 T03300181  RH  041%=      5-min Rain = 0
KSM2 131951Z 05013KT 33/18 A3009 RMK A01 T03280179  RH  041%=      5-min Rain = 0
KSM2 131952Z 06012G17KT 33/18 A3009 RMK A01 T03250176  RH  041%=      5-min Rain = 0
KSM2 131953Z 07009G15KT 33/18 A3009 RMK A01 T03280177  RH  041%=      5-min Rain = 0
KSM2 131954Z 07012G17KT 33/18 A3009 RMK A01 T03310178  RH  040%=      5-min Rain = 0
KSM2 131955Z 06009G14KT 33/18 A3009 RMK A01 T03320177  RH  040%=      5-min Rain = 0
KSM2 131956Z 06013KT 33/18 A3009 RMK A01 T03330178  RH  040%=      5-min Rain = 0
KSM2 131957Z 07014KT 33/18 A3009 RMK A01 T03310179  RH  041%=      5-min Rain = 0
KSM2 131958Z 07010KT 33/18 A3009 RMK A01 T03300179  RH  041%=      5-min Rain = 0
KSM2 131959Z 06010KT 33/18 A3009 RMK A01 T03280180  RH  041%=      5-min Rain = 0
KSM2 132000Z 06013KT 33/18 A3009 RMK A01 T03280180  RH  042%=      5-min Rain = 0
KSM2 132001Z 05010KT 33/18 A3009 RMK A01 T03290178  RH  041%=      5-min Rain = 0
KSM2 132002Z 06012KT 33/18 A3009 RMK A01 T03280179  RH  041%=      5-min Rain = 0
KSM2 132003Z 06009KT 33/18 A3009 RMK A01 T03300179  RH  041%=      5-min Rain = 0
KSM2 132004Z 04014KT 33/18 A3009 RMK A01 T03310178  RH  040%=      5-min Rain = 0
KSM2 132005Z 05014KT 33/18 A3009 RMK A01 T03330177  RH  040%=      5-min Rain = 0
KSM2 132006Z 04016KT 33/18 A3009 RMK A01 T03330177  RH  040%=      5-min Rain = 0
KSM2 132007Z 06015KT 33/18 A3009 RMK A01 T03320178  RH  040%=      5-min Rain = 0
KSM2 132008Z 06016KT 33/18 A3009 RMK A01 T03300178  RH  040%=      5-min Rain = 0
KSM2 132009Z 05012KT 33/18 A3009 RMK A01 T03270178  RH  041%=      5-min Rain = 0
KSM2 132010Z 04012KT 33/18 A3009 RMK A01 T03250178  RH  042%=      5-min Rain = 0
KSM2 132011Z 03012KT 32/18 A3009 RMK A01 T03230176  RH  041%=      5-min Rain = 0
KSM2 132012Z 05014KT 33/18 A3009 RMK A01 T03280179  RH  041%=      5-min Rain = 0
KSM2 132013Z 06014KT 33/18 A3009 RMK A01 T03310177  RH  040%=      5-min Rain = 0
KSM2 132014Z 08013KT 33/18 A3009 RMK A01 T03280177  RH  041%=      5-min Rain = 0
KSM2 132015Z 07015KT 33/18 A3009 RMK A01 T03270176  RH  040%=      5-min Rain = 0
KSM2 132016Z 05014KT 33/18 A3009 RMK A01 T03270175  RH  040%=      5-min Rain = 0
KSM2 132017Z 05013KT 33/18 A3009 RMK A01 T03280176  RH  040%=      5-min Rain = 0
KSM2 132018Z 05009KT 33/18 A3009 RMK A01 T03290175  RH  040%=      5-min Rain = 0
KSM2 132019Z 05007KT 33/17 A3009 RMK A01 T03290174  RH  040%=      5-min Rain = 0
KSM2 132020Z 05012KT 33/18 A3009 RMK A01 T03290176  RH  040%=      5-min Rain = 0
KSM2 132021Z 05016KT 33/17 A3009 RMK A01 T03290174  RH  040%=      5-min Rain = 0
KSM2 132022Z 05014KT 33/17 A3009 RMK A01 T03290171  RH  039%=      5-min Rain = 0
KSM2 132023Z 06014G19KT 33/17 A3009 RMK A01 T03290170  RH  039%=      5-min Rain = 0
KSM2 132024Z 05012KT 33/17 A3009 RMK A01 T03300167  RH  038%=      5-min Rain = 0
KSM2 132025Z 07013KT 33/17 A3009 RMK A01 T03290171  RH  039%=      5-min Rain = 0
KSM2 132026Z 07012KT 33/17 A3009 RMK A01 T03290170  RH  039%=      5-min Rain = 0
KSM2 132027Z 08009KT 33/17 A3009 RMK A01 T03290172  RH  039%=      5-min Rain = 0
KSM2 132028Z 08009KT 33/18 A3009 RMK A01 T03320176  RH  040%=      5-min Rain = 0
KSM2 132029Z 07012KT 34/18 A3009 RMK A01 T03350177  RH  039%=      5-min Rain = 0
KSM2 132030Z 06008KT 34/18 A3009 RMK A01 T03360179  RH  039%=      5-min Rain = 0
KSM2 132031Z 04008KT 34/18 A3008 RMK A01 T03410179  RH  038%=      5-min Rain = 0
KSM2 132032Z 06009G14KT 34/18 A3009 RMK A01 T03440179  RH  038%=      5-min Rain = 0
KSM2 132033Z 06014G19KT 35/18 A3008 RMK A01 T03450177  RH  037%=      5-min Rain = 0
KSM2 132034Z 06013G18KT 34/18 A3008 RMK A01 T03410175  RH  037%=      5-min Rain = 0
KSM2 132035Z 06014G19KT 34/17 A3008 RMK A01 T03390170  RH  037%=      5-min Rain = 0
KSM2 132036Z 06012KT 33/17 A3009 RMK A01 T03340170  RH  038%=      5-min Rain = 0
KSM2 132037Z 07012KT 33/17 A3009 RMK A01 T03340172  RH  038%=      5-min Rain = 0
KSM2 132038Z 07009KT 33/17 A3009 RMK A01 T03330174  RH  039%=      5-min Rain = 0
KSM2 132039Z 07010KT 33/17 A3008 RMK A01 T03340174  RH  039%=      5-min Rain = 0
KSM2 132040Z 07009G14KT 34/18 A3008 RMK A01 T03350175  RH  039%=      5-min Rain = 0
KSM2 132041Z 07009KT 34/18 A3008 RMK A01 T03370176  RH  038%=      5-min Rain = 0
KSM2 132042Z 05010KT 34/18 A3008 RMK A01 T03400175  RH  038%=      5-min Rain = 0
KSM2 132043Z 07010KT 34/18 A3008 RMK A01 T03400176  RH  038%=      5-min Rain = 0
KSM2 132044Z 09009KT 34/17 A3008 RMK A01 T03390173  RH  037%=      5-min Rain = 0
KSM2 132045Z 08007KT 34/18 A3008 RMK A01 T03410176  RH  037%=      5-min Rain = 0
KSM2 132046Z 07008G13KT 35/18 A3008 RMK A01 T03450178  RH  037%=      5-min Rain = 0
KSM2 132047Z 06009KT 35/18 A3008 RMK A01 T03510180  RH  036%=      5-min Rain = 0
KSM2 132048Z 05009KT 34/18 A3008 RMK A01 T03440178  RH  037%=      5-min Rain = 0
KSM2 132049Z 06012KT 34/18 A3008 RMK A01 T03400177  RH  038%=      5-min Rain = 0
KSM2 132050Z 08013KT 34/17 A3008 RMK A01 T03400174  RH  037%=      5-min Rain = 0
KSM2 132051Z 08010KT 34/17 A3008 RMK A01 T03400174  RH  037%=      5-min Rain = 0
KSM2 132052Z 08009KT 34/17 A3008 RMK A01 T03410173  RH  037%=      5-min Rain = 0
KSM2 132053Z 08012KT 34/17 A3008 RMK A01 T03420172  RH  036%=      5-min Rain = 0
KSM2 132054Z 08012KT 34/17 A3008 RMK A01 T03410170  RH  036%=      5-min Rain = 0
KSM2 132055Z 09012KT 34/17 A3008 RMK A01 T03410171  RH  036%=      5-min Rain = 0
KSM2 132056Z 10012KT 34/17 A3008 RMK A01 T03430171  RH  036%=      5-min Rain = 0
KSM2 132057Z 10011KT 34/17 A3008 RMK A01 T03390170  RH  037%=      5-min Rain = 0
KSM2 132058Z 09010KT 34/17 A3008 RMK A01 T03350171  RH  038%=      5-min Rain = 0
KSM2 132059Z 09011KT 34/17 A3008 RMK A01 T03370174  RH  038%=      5-min Rain = 0
KSM2 132100Z 10013KT 34/18 A3008 RMK A01 T03430175  RH  037%=      5-min Rain = 0
KSM2 132101Z 09015KT 35/17 A3008 RMK A01 T03460173  RH  036%=      5-min Rain = 0
KSM2 132102Z 09013KT 35/17 A3008 RMK A01 T03460171  RH  035%=      5-min Rain = 0
KSM2 132103Z 09012KT 34/17 A3008 RMK A01 T03440171  RH  036%=      5-min Rain = 0
KSM2 132104Z 07012KT 34/17 A3008 RMK A01 T03430171  RH  036%=      5-min Rain = 0
KSM2 132105Z 07014G19KT 34/17 A3008 RMK A01 T03430171  RH  036%=      5-min Rain = 0
KSM2 132106Z 08010KT 34/17 A3008 RMK A01 T03420171  RH  036%=      5-min Rain = 0
KSM2 132107Z 05012KT 34/17 A3007 RMK A01 T03400171  RH  036%=      5-min Rain = 0
KSM2 132108Z 05009KT 34/17 A3007 RMK A01 T03380170  RH  037%=      5-min Rain = 0
KSM2 132109Z 06007KT 34/17 A3007 RMK A01 T03360171  RH  037%=      5-min Rain = 0
KSM2 132110Z 06009G17KT 34/17 A3007 RMK A01 T03380171  RH  037%=      5-min Rain = 0
KSM2 132111Z 07009KT 34/17 A3007 RMK A01 T03400171  RH  037%=      5-min Rain = 0
KSM2 132112Z 07011KT 34/17 A3007 RMK A01 T03410171  RH  036%=      5-min Rain = 0
KSM2 132113Z 06010KT 34/17 A3007 RMK A01 T03430170  RH  036%=      5-min Rain = 0
KSM2 132114Z 06009KT 34/17 A3007 RMK A01 T03420170  RH  036%=      5-min Rain = 0
KSM2 132115Z 05012KT 34/17 A3007 RMK A01 T03420172  RH  036%=      5-min Rain = 0
KSM2 132116Z 06011KT 34/17 A3007 RMK A01 T03420173  RH  037%=      5-min Rain = 0
KSM2 132117Z 06011KT 35/17 A3007 RMK A01 T03450173  RH  036%=      5-min Rain = 0
KSM2 132118Z 06012KT 35/17 A3007 RMK A01 T03450173  RH  036%=      5-min Rain = 0
KSM2 132119Z 05010KT 34/17 A3007 RMK A01 T03430172  RH  036%=      5-min Rain = 0
KSM2 132120Z 04008KT 34/17 A3007 RMK A01 T03370172  RH  037%=      5-min Rain = 0
KSM2 132121Z 08008KT 34/18 A3007 RMK A01 T03360175  RH  038%=      5-min Rain = 0
KSM2 132122Z 07009KT 34/18 A3007 RMK A01 T03410176  RH  038%=      5-min Rain = 0
KSM2 132123Z 09011G17KT 34/18 A3007 RMK A01 T03420176  RH  037%=      5-min Rain = 0
KSM2 132124Z 08010KT 34/17 A3007 RMK A01 T03380174  RH  038%=      5-min Rain = 0
KSM2 132125Z 07013KT 34/18 A3006 RMK A01 T03380175  RH  038%=      5-min Rain = 0
KSM2 132126Z 07015KT 34/17 A3006 RMK A01 T03410174  RH  037%=      5-min Rain = 0
KSM2 132127Z 07013KT 34/17 A3007 RMK A01 T03400172  RH  037%=      5-min Rain = 0
KSM2 132128Z 09012G17KT 34/17 A3006 RMK A01 T03380172  RH  037%=      5-min Rain = 0
KSM2 132129Z 08016KT 34/17 A3006 RMK A01 T03410172  RH  037%=      5-min Rain = 0
KSM2 132130Z 07012KT 34/17 A3007 RMK A01 T03430171  RH  036%=      5-min Rain = 0
KSM2 132131Z 06014KT 34/17 A3006 RMK A01 T03430172  RH  036%=      5-min Rain = 0
KSM2 132132Z 08013KT 34/17 A3006 RMK A01 T03400171  RH  037%=      5-min Rain = 0
KSM2 132133Z 07014KT 34/17 A3007 RMK A01 T03390171  RH  037%=      5-min Rain = 0
KSM2 132134Z 09013KT 34/17 A3007 RMK A01 T03380171  RH  037%=      5-min Rain = 0
KSM2 132135Z 11009KT 34/17 A3006 RMK A01 T03370171  RH  037%=      5-min Rain = 0
KSM2 132136Z 09009G18KT 34/17 A3006 RMK A01 T03370171  RH  037%=      5-min Rain = 0
KSM2 132137Z 10011KT 34/17 A3006 RMK A01 T03390168  RH  036%=      5-min Rain = 0
KSM2 132138Z 08009KT 34/17 A3006 RMK A01 T03410171  RH  036%=      5-min Rain = 0
KSM2 132139Z 07012KT 34/17 A3006 RMK A01 T03440171  RH  036%=      5-min Rain = 0
KSM2 132140Z 07012KT 34/17 A3006 RMK A01 T03430171  RH  036%=      5-min Rain = 0
KSM2 132141Z 06013KT 34/17 A3006 RMK A01 T03420171  RH  036%=      5-min Rain = 0
KSM2 132142Z 05011KT 34/17 A3006 RMK A01 T03400172  RH  037%=      5-min Rain = 0
KSM2 132143Z 04013KT 34/17 A3006 RMK A01 T03410171  RH  036%=      5-min Rain = 0
KSM2 132144Z 05012KT 34/17 A3006 RMK A01 T03430171  RH  036%=      5-min Rain = 0
KSM2 132145Z 04012KT 34/17 A3006 RMK A01 T03400169  RH  036%=      5-min Rain = 0
KSM2 132146Z 04009KT 34/17 A3006 RMK A01 T03420169  RH  036%=      5-min Rain = 0
KSM2 132147Z 05008KT 34/17 A3006 RMK A01 T03430168  RH  035%=      5-min Rain = 0
KSM2 132148Z 07010KT 34/17 A3006 RMK A01 T03420169  RH  036%=      5-min Rain = 0
KSM2 132149Z 07010KT 34/17 A3006 RMK A01 T03420167  RH  035%=      5-min Rain = 0
KSM2 132150Z 06011G17KT 34/17 A3006 RMK A01 T03420169  RH  036%=      5-min Rain = 0
KSM2 132151Z 06014KT 34/17 A3006 RMK A01 T03430170  RH  036%=      5-min Rain = 0
KSM2 132152Z 05012G17KT 34/17 A3006 RMK A01 T03390168  RH  036%=      5-min Rain = 0
KSM2 132153Z 04013KT 34/17 A3006 RMK A01 T03350169  RH  037%=      5-min Rain = 0
KSM2 132154Z 05012G17KT 34/17 A3006 RMK A01 T03350167  RH  037%=      5-min Rain = 0
KSM2 132155Z 06012G17KT 34/17 A3006 RMK A01 T03350165  RH  036%=      5-min Rain = 0
KSM2 132156Z 07007KT 34/17 A3006 RMK A01 T03350165  RH  036%=      5-min Rain = 0
KSM2 132157Z 09011KT 34/17 A3006 RMK A01 T03360167  RH  036%=      5-min Rain = 0
KSM2 132158Z 09013KT 34/17 A3006 RMK A01 T03390165  RH  035%=      5-min Rain = 0
KSM2 132159Z 09011KT 34/16 A3006 RMK A01 T03400161  RH  034%=      5-min Rain = 0
KSM2 132200Z 09012KT 34/16 A3006 RMK A01 T03380164  RH  035%=      5-min Rain = 0
KSM2 132201Z 09010KT 34/17 A3006 RMK A01 T03380166  RH  036%=      5-min Rain = 0
KSM2 132202Z 07009KT 34/17 A3006 RMK A01 T03390168  RH  036%=      5-min Rain = 0
KSM2 132203Z 06010KT 34/17 A3006 RMK A01 T03400168  RH  036%=      5-min Rain = 0
KSM2 132204Z 05012KT 34/17 A3005 RMK A01 T03420168  RH  036%=      5-min Rain = 0
KSM2 132205Z 05012KT 34/17 A3005 RMK A01 T03410167  RH  035%=      5-min Rain = 0
KSM2 132206Z 05011KT 34/17 A3005 RMK A01 T03350165  RH  036%=      5-min Rain = 0
KSM2 132207Z 05011KT 33/17 A3005 RMK A01 T03330166  RH  037%=      5-min Rain = 0
KSM2 132208Z 05012KT 33/17 A3005 RMK A01 T03330167  RH  037%=      5-min Rain = 0
KSM2 132209Z 04014G19KT 34/17 A3005 RMK A01 T03350167  RH  037%=      5-min Rain = 0
KSM2 132210Z 06011G16KT 34/17 A3005 RMK A01 T03350168  RH  037%=      5-min Rain = 0
KSM2 132211Z 08008KT 34/17 A3005 RMK A01 T03350169  RH  037%=      5-min Rain = 0
KSM2 132212Z 05008G13KT 34/17 A3005 RMK A01 T03380169  RH  037%=      5-min Rain = 0
KSM2 132213Z 05011KT 34/17 A3005 RMK A01 T03420169  RH  036%=      5-min Rain = 0
KSM2 132214Z 05013KT 34/17 A3005 RMK A01 T03410168  RH  036%=      5-min Rain = 0
KSM2 132215Z 06014KT 34/17 A3005 RMK A01 T03380167  RH  036%=      5-min Rain = 0
KSM2 132216Z 07012KT 34/17 A3005 RMK A01 T03370166  RH  036%=      5-min Rain = 0
KSM2 132217Z 07010KT 34/17 A3005 RMK A01 T03350165  RH  036%=      5-min Rain = 0
KSM2 132218Z 05011KT 34/17 A3005 RMK A01 T03350165  RH  036%=      5-min Rain = 0
KSM2 132219Z 05010KT 34/17 A3005 RMK A01 T03360165  RH  036%=      5-min Rain = 0
KSM2 132220Z 06013KT 34/17 A3005 RMK A01 T03360166  RH  036%=      5-min Rain = 0
KSM2 132221Z 04010G15KT 34/17 A3005 RMK A01 T03360166  RH  036%=      5-min Rain = 0
KSM2 132222Z 05011KT 34/17 A3005 RMK A01 T03360167  RH  037%=      5-min Rain = 0
KSM2 132223Z 06014KT 34/17 A3005 RMK A01 T03380170  RH  037%=      5-min Rain = 0
KSM2 132224Z 06012KT 34/17 A3005 RMK A01 T03410169  RH  036%=      5-min Rain = 0
KSM2 132225Z 06012KT 34/17 A3005 RMK A01 T03390169  RH  036%=      5-min Rain = 0
KSM2 132226Z 07011KT 34/17 A3005 RMK A01 T03380171  RH  037%=      5-min Rain = 0
KSM2 132227Z 07009KT 34/17 A3005 RMK A01 T03400168  RH  036%=      5-min Rain = 0
KSM2 132228Z 08008KT 34/17 A3005 RMK A01 T03400165  RH  035%=      5-min Rain = 0
KSM2 132229Z 06009G15KT 34/16 A3005 RMK A01 T03410164  RH  035%=      5-min Rain = 0
KSM2 132230Z 06008G13KT 34/17 A3005 RMK A01 T03410168  RH  036%=      5-min Rain = 0
KSM2 132231Z 07009G14KT 34/17 A3005 RMK A01 T03400168  RH  036%=      5-min Rain = 0
KSM2 132232Z 08013KT 34/17 A3005 RMK A01 T03390170  RH  037%=      5-min Rain = 0
KSM2 132233Z 08011KT 34/17 A3005 RMK A01 T03400168  RH  036%=      5-min Rain = 0
KSM2 132234Z 07010KT 34/17 A3005 RMK A01 T03390168  RH  036%=      5-min Rain = 0
KSM2 132235Z 07010KT 34/17 A3005 RMK A01 T03380167  RH  036%=      5-min Rain = 0
KSM2 132236Z 08010KT 34/17 A3005 RMK A01 T03370166  RH  036%=      5-min Rain = 0
KSM2 132237Z 08009G15KT 34/17 A3004 RMK A01 T03370166  RH  036%=      5-min Rain = 0
KSM2 132238Z 08013KT 34/17 A3004 RMK A01 T03400166  RH  035%=      5-min Rain = 0
KSM2 132239Z 08013KT 34/17 A3004 RMK A01 T03410166  RH  035%=      5-min Rain = 0
KSM2 132240Z 07013KT 34/17 A3005 RMK A01 T03410166  RH  035%=      5-min Rain = 0
KSM2 132241Z 07012KT 34/17 A3005 RMK A01 T03410165  RH  035%=      5-min Rain = 0
KSM2 132242Z 06013KT 34/17 A3004 RMK A01 T03400165  RH  035%=      5-min Rain = 0
KSM2 132243Z 06011KT 34/16 A3005 RMK A01 T03390164  RH  035%=      5-min Rain = 0
KSM2 132244Z 07010KT 34/16 A3005 RMK A01 T03380164  RH  035%=      5-min Rain = 0
KSM2 132245Z 06008KT 34/17 A3005 RMK A01 T03390165  RH  035%=      5-min Rain = 0
KSM2 132246Z 07011KT 34/17 A3005 RMK A01 T03400166  RH  035%=      5-min Rain = 0
KSM2 132247Z 08011KT 34/17 A3005 RMK A01 T03410166  RH  035%=      5-min Rain = 0
KSM2 132248Z 09010KT 34/17 A3004 RMK A01 T03410166  RH  035%=      5-min Rain = 0
KSM2 132249Z 10010KT 34/17 A3004 RMK A01 T03390166  RH  036%=      5-min Rain = 0
KSM2 132250Z 08010G15KT 34/17 A3004 RMK A01 T03360167  RH  036%=      5-min Rain = 0
KSM2 132251Z 08016KT 34/17 A3004 RMK A01 T03370167  RH  036%=      5-min Rain = 0
KSM2 132252Z 09012KT 34/17 A3004 RMK A01 T03380167  RH  036%=      5-min Rain = 0
KSM2 132253Z 09011KT 34/17 A3005 RMK A01 T03390168  RH  036%=      5-min Rain = 0
KSM2 132254Z 10009KT 34/17 A3005 RMK A01 T03390166  RH  036%=      5-min Rain = 0
KSM2 132255Z 10008KT 34/17 A3005 RMK A01 T03380166  RH  036%=      5-min Rain = 0
KSM2 132256Z 09009KT 34/17 A3005 RMK A01 T03370166  RH  036%=      5-min Rain = 0
KSM2 132257Z 08011KT 34/17 A3005 RMK A01 T03360167  RH  036%=      5-min Rain = 0
KSM2 132258Z 08008KT 34/17 A3005 RMK A01 T03370168  RH  036%=      5-min Rain = 0
KSM2 132259Z 08008KT 34/17 A3005 RMK A01 T03410168  RH  036%=      5-min Rain = 0
KSM2 132300Z 07006KT 34/17 A3005 RMK A01 T03430169  RH  036%=      5-min Rain = 0
KSM2 132301Z 08007KT 34/17 A3005 RMK A01 T03440170  RH  036%=      5-min Rain = 0
KSM2 132302Z 08007KT 35/17 A3005 RMK A01 T03450170  RH  035%=      5-min Rain = 0
KSM2 132303Z 07009KT 35/17 A3005 RMK A01 T03450172  RH  036%=      5-min Rain = 0
KSM2 132304Z 08008KT 34/17 A3005 RMK A01 T03430171  RH  036%=      5-min Rain = 0
KSM2 132305Z 08011KT 34/17 A3005 RMK A01 T03420171  RH  036%=      5-min Rain = 0
KSM2 132306Z 09010KT 34/17 A3005 RMK A01 T03410169  RH  036%=      5-min Rain = 0
KSM2 132307Z 08008KT 34/17 A3005 RMK A01 T03390168  RH  036%=      5-min Rain = 0
KSM2 132308Z 09009KT 34/17 A3005 RMK A01 T03370169  RH  037%=      5-min Rain = 0
KSM2 132309Z 07013KT 34/17 A3005 RMK A01 T03380169  RH  036%=      5-min Rain = 0
KSM2 132310Z 06011KT 34/17 A3005 RMK A01 T03390168  RH  036%=      5-min Rain = 0
KSM2 132311Z 05010KT 34/17 A3005 RMK A01 T03370167  RH  036%=      5-min Rain = 0
KSM2 132312Z 05010KT 34/17 A3005 RMK A01 T03370167  RH  036%=      5-min Rain = 0
KSM2 132313Z 06009KT 34/17 A3005 RMK A01 T03360167  RH  036%=      5-min Rain = 0
KSM2 132314Z 06011KT 34/17 A3005 RMK A01 T03370168  RH  037%=      5-min Rain = 0
KSM2 132315Z 06010KT 34/17 A3005 RMK A01 T03370167  RH  036%=      5-min Rain = 0
KSM2 132316Z 06008KT 34/17 A3005 RMK A01 T03360166  RH  036%=      5-min Rain = 0
KSM2 132317Z 06009KT 34/17 A3005 RMK A01 T03360166  RH  036%=      5-min Rain = 0
KSM2 132318Z 05009KT 34/17 A3005 RMK A01 T03360165  RH  036%=      5-min Rain = 0
KSM2 132319Z 05009KT 34/17 A3005 RMK A01 T03350165  RH  036%=      5-min Rain = 0
KSM2 132320Z 04009KT 33/16 A3005 RMK A01 T03340164  RH  036%=      5-min Rain = 0
KSM2 132321Z 04009KT 33/16 A3005 RMK A01 T03330164  RH  036%=      5-min Rain = 0
KSM2 132322Z 04008KT 34/17 A3005 RMK A01 T03360165  RH  036%=      5-min Rain = 0
KSM2 132323Z 05009KT 34/17 A3005 RMK A01 T03380166  RH  036%=      5-min Rain = 0
KSM2 132324Z 07007KT 34/17 A3005 RMK A01 T03380167  RH  036%=      5-min Rain = 0
KSM2 132325Z 07005KT 34/17 A3005 RMK A01 T03370167  RH  036%=      5-min Rain = 0
KSM2 132326Z 08009KT 34/17 A3005 RMK A01 T03370167  RH  036%=      5-min Rain = 0
KSM2 132327Z 08009G14KT 34/17 A3005 RMK A01 T03380167  RH  036%=      5-min Rain = 0
KSM2 132328Z 08009KT 34/17 A3005 RMK A01 T03380167  RH  036%=      5-min Rain = 0
KSM2 132329Z 08009KT 34/17 A3005 RMK A01 T03370167  RH  036%=      5-min Rain = 0
KSM2 132330Z 08008KT 34/17 A3005 RMK A01 T03370167  RH  036%=      5-min Rain = 0
KSM2 132331Z 06008KT 34/17 A3005 RMK A01 T03380168  RH  036%=      5-min Rain = 0
KSM2 132332Z 07006KT 34/17 A3005 RMK A01 T03390169  RH  036%=      5-min Rain = 0
KSM2 132333Z 08006KT 34/17 A3005 RMK A01 T03390168  RH  036%=      5-min Rain = 0
KSM2 132334Z 06011G16KT 34/17 A3005 RMK A01 T03400169  RH  036%=      5-min Rain = 0
KSM2 132335Z 06013KT 34/17 A3004 RMK A01 T03380167  RH  036%=      5-min Rain = 0
KSM2 132336Z 05012KT 34/17 A3004 RMK A01 T03350167  RH  037%=      5-min Rain = 0
KSM2 132337Z 07010KT 33/17 A3005 RMK A01 T03340168  RH  037%=      5-min Rain = 0
KSM2 132338Z 08010KT 34/17 A3005 RMK A01 T03360168  RH  037%=      5-min Rain = 0
KSM2 132339Z 07011KT 34/17 A3005 RMK A01 T03360168  RH  037%=      5-min Rain = 0
KSM2 132340Z 07010KT 34/17 A3005 RMK A01 T03350168  RH  037%=      5-min Rain = 0
KSM2 132341Z 07010KT 33/17 A3005 RMK A01 T03340168  RH  037%=      5-min Rain = 0
KSM2 132342Z 07006KT 33/17 A3005 RMK A01 T03340168  RH  037%=      5-min Rain = 0
KSM2 132343Z 05006KT 33/17 A3005 RMK A01 T03340167  RH  037%=      5-min Rain = 0
KSM2 132344Z 05007KT 33/17 A3005 RMK A01 T03340168  RH  037%=      5-min Rain = 0
KSM2 132345Z 05010KT 33/17 A3005 RMK A01 T03340168  RH  037%=      5-min Rain = 0
KSM2 132346Z 06010KT 33/17 A3005 RMK A01 T03340169  RH  037%=      5-min Rain = 0
KSM2 132347Z 06009KT 33/17 A3005 RMK A01 T03330169  RH  038%=      5-min Rain = 0
KSM2 132348Z 07009KT 33/17 A3005 RMK A01 T03330169  RH  038%=      5-min Rain = 0
KSM2 132349Z 07008KT 33/17 A3005 RMK A01 T03330169  RH  038%=      5-min Rain = 0
KSM2 132350Z 05009KT 33/17 A3004 RMK A01 T03330170  RH  038%=      5-min Rain = 0
KSM2 132351Z 05012KT 33/17 A3004 RMK A01 T03330170  RH  038%=      5-min Rain = 0
KSM2 132352Z 05011KT 33/17 A3005 RMK A01 T03330169  RH  038%=      5-min Rain = 0
KSM2 132353Z 06009KT 33/17 A3005 RMK A01 T03300168  RH  038%=      5-min Rain = 0
KSM2 132354Z 05009KT 33/17 A3005 RMK A01 T03280169  RH  039%=      5-min Rain = 0
KSM2 132355Z 05010KT 33/17 A3005 RMK A01 T03290169  RH  039%=      5-min Rain = 0
KSM2 132356Z 06011KT 33/17 A3005 RMK A01 T03300168  RH  038%=      5-min Rain = 0
KSM2 132357Z 05011KT 33/17 A3005 RMK A01 T03300169  RH  038%=      5-min Rain = 0
KSM2 132358Z 04011KT 33/17 A3005 RMK A01 T03300168  RH  038%=      5-min Rain = 0
KSM2 132359Z 06011KT 33/17 A3005 RMK A01 T03310169  RH  038%=      5-min Rain = 0
KSM2 140000Z 06011KT 33/17 A3005 RMK A01 T03310169  RH  038%=      5-min Rain = 0
KSM2 140001Z 06009KT 33/17 A3005 RMK A01 T03300168  RH  038%=      5-min Rain = 0
KSM2 140002Z 05009KT 33/17 A3005 RMK A01 T03300169  RH  038%=      5-min Rain = 0
KSM2 140003Z 06009G14KT 33/17 A3005 RMK A01 T03300169  RH  038%=      5-min Rain = 0
KSM2 140004Z 06011KT 33/17 A3005 RMK A01 T03290168  RH  038%=      5-min Rain = 0
KSM2 140005Z 05009KT 33/17 A3005 RMK A01 T03280168  RH  038%=      5-min Rain = 0
KSM2 140006Z 06012KT 33/17 A3005 RMK A01 T03290168  RH  038%=      5-min Rain = 0
KSM2 140007Z 06009G14KT 33/17 A3005 RMK A01 T03280167  RH  038%=      5-min Rain = 0
KSM2 140008Z 06012KT 33/17 A3005 RMK A01 T03280168  RH  039%=      5-min Rain = 0
KSM2 140009Z 04011KT 33/17 A3005 RMK A01 T03280169  RH  039%=      5-min Rain = 0
KSM2 140010Z 05013KT 33/17 A3005 RMK A01 T03280169  RH  039%=      5-min Rain = 0
KSM2 140011Z 06012KT 33/17 A3005 RMK A01 T03270168  RH  039%=      5-min Rain = 0
KSM2 140012Z 06011G16KT 33/17 A3005 RMK A01 T03260168  RH  039%=      5-min Rain = 0
KSM2 140013Z 06012G17KT 33/17 A3005 RMK A01 T03260168  RH  039%=      5-min Rain = 0
KSM2 140014Z 05011KT 33/17 A3004 RMK A01 T03260168  RH  039%=      5-min Rain = 0
KSM2 140015Z 05009KT 33/17 A3004 RMK A01 T03260168  RH  039%=      5-min Rain = 0
KSM2 140016Z 05007KT 33/17 A3004 RMK A01 T03250168  RH  039%=      5-min Rain = 0
KSM2 140017Z 05010KT 33/17 A3005 RMK A01 T03250168  RH  039%=      5-min Rain = 0
KSM2 140018Z 05010KT 33/17 A3005 RMK A01 T03260169  RH  039%=      5-min Rain = 0
KSM2 140019Z 05008KT 33/17 A3005 RMK A01 T03260168  RH  039%=      5-min Rain = 0
KSM2 140020Z 06009KT 33/17 A3005 RMK A01 T03260168  RH  039%=      5-min Rain = 0
KSM2 140021Z 05011KT 33/17 A3005 RMK A01 T03260168  RH  039%=      5-min Rain = 0
KSM2 140022Z 05010KT 33/17 A3005 RMK A01 T03270168  RH  039%=      5-min Rain = 0
KSM2 140023Z 05011KT 33/17 A3005 RMK A01 T03260167  RH  039%=      5-min Rain = 0
KSM2 140024Z 06012KT 33/17 A3005 RMK A01 T03250167  RH  039%=      5-min Rain = 0
KSM2 140025Z 07010KT 32/17 A3005 RMK A01 T03240167  RH  039%=      5-min Rain = 0
KSM2 140026Z 06008KT 32/17 A3005 RMK A01 T03240168  RH  039%=      5-min Rain = 0
KSM2 140027Z 06010KT 33/17 A3005 RMK A01 T03250168  RH  039%=      5-min Rain = 0
KSM2 140028Z 06012KT 33/17 A3005 RMK A01 T03250168  RH  039%=      5-min Rain = 0
KSM2 140029Z 06013KT 33/17 A3005 RMK A01 T03250167  RH  039%=      5-min Rain = 0
KSM2 140030Z 06010KT 32/17 A3005 RMK A01 T03240167  RH  039%=      5-min Rain = 0
KSM2 140031Z 04010KT 32/17 A3005 RMK A01 T03230167  RH  039%=      5-min Rain = 0
KSM2 140032Z 06012KT 32/17 A3005 RMK A01 T03230167  RH  039%=      5-min Rain = 0
KSM2 140033Z 06010KT 32/17 A3005 RMK A01 T03230167  RH  039%=      5-min Rain = 0
KSM2 140034Z 05010KT 32/17 A3005 RMK A01 T03230167  RH  039%=      5-min Rain = 0
KSM2 140035Z 06010KT 32/17 A3005 RMK A01 T03230167  RH  039%=      5-min Rain = 0
KSM2 140036Z 06008KT 32/17 A3005 RMK A01 T03220168  RH  040%=      5-min Rain = 0
KSM2 140037Z 05007KT 32/17 A3005 RMK A01 T03220168  RH  040%=      5-min Rain = 0
KSM2 140038Z 05008G13KT 32/17 A3005 RMK A01 T03230169  RH  040%=      5-min Rain = 0
KSM2 140039Z 05009KT 32/17 A3005 RMK A01 T03230169  RH  040%=      5-min Rain = 0
KSM2 140040Z 04010KT 32/17 A3005 RMK A01 T03240170  RH  040%=      5-min Rain = 0
KSM2 140041Z 06010KT 32/17 A3006 RMK A01 T03230170  RH  040%=      5-min Rain = 0
KSM2 140042Z 07010KT 32/17 A3006 RMK A01 T03230169  RH  040%=      5-min Rain = 0
KSM2 140043Z 07009KT 32/17 A3006 RMK A01 T03220170  RH  040%=      5-min Rain = 0
KSM2 140044Z 05008KT 32/17 A3006 RMK A01 T03210170  RH  040%=      5-min Rain = 0
KSM2 140045Z 05009KT 32/17 A3006 RMK A01 T03210170  RH  040%=      5-min Rain = 0
KSM2 140046Z 06010KT 32/17 A3006 RMK A01 T03210169  RH  040%=      5-min Rain = 0
KSM2 140047Z 06009KT 32/17 A3006 RMK A01 T03200170  RH  041%=      5-min Rain = 0
KSM2 140048Z 05008KT 32/17 A3006 RMK A01 T03190170  RH  041%=      5-min Rain = 0
KSM2 140049Z 05007KT 32/17 A3006 RMK A01 T03190170  RH  041%=      5-min Rain = 0
KSM2 140050Z 05007KT 32/17 A3006 RMK A01 T03190170  RH  041%=      5-min Rain = 0
KSM2 140051Z 05008KT 32/17 A3006 RMK A01 T03200170  RH  041%=      5-min Rain = 0
KSM2 140052Z 06008KT 32/17 A3006 RMK A01 T03200170  RH  041%=      5-min Rain = 0
KSM2 140053Z 06009KT 32/17 A3006 RMK A01 T03190170  RH  041%=      5-min Rain = 0
KSM2 140054Z 06010KT 32/17 A3006 RMK A01 T03180170  RH  041%=      5-min Rain = 0
KSM2 140055Z 06011KT 32/17 A3006 RMK A01 T03180169  RH  041%=      5-min Rain = 0
KSM2 140056Z 06010KT 32/17 A3006 RMK A01 T03180169  RH  041%=      5-min Rain = 0
KSM2 140057Z 06011KT 32/17 A3006 RMK A01 T03180169  RH  041%=      5-min Rain = 0
KSM2 140058Z 07010KT 32/17 A3006 RMK A01 T03180169  RH  041%=      5-min Rain = 0
KSM2 140059Z 06009KT 32/17 A3006 RMK A01 T03170169  RH  041%=      5-min Rain = 0
KSM2 140100Z 07008KT 32/17 A3006 RMK A01 T03170169  RH  041%=      5-min Rain = 0
KSM2 140101Z 06007KT 32/17 A3006 RMK A01 T03170170  RH  041%=      5-min Rain = 0
KSM2 140102Z 06010KT 32/17 A3006 RMK A01 T03170170  RH  041%=      5-min Rain = 0
KSM2 140103Z 07008KT 32/17 A3006 RMK A01 T03160170  RH  042%=      5-min Rain = 0
KSM2 140104Z 07007KT 32/17 A3006 RMK A01 T03160170  RH  042%=      5-min Rain = 0
KSM2 140105Z 07007KT 32/17 A3006 RMK A01 T03150171  RH  042%=      5-min Rain = 0
KSM2 140106Z 07007KT 31/17 A3006 RMK A01 T03140170  RH  042%=      5-min Rain = 0
KSM2 140107Z 07008KT 31/17 A3006 RMK A01 T03130170  RH  042%=      5-min Rain = 0
KSM2 140108Z 07010KT 31/17 A3006 RMK A01 T03120170  RH  042%=      5-min Rain = 0
KSM2 140109Z 07007KT 31/17 A3006 RMK A01 T03120170  RH  043%=      5-min Rain = 0
KSM2 140110Z 06007KT 31/17 A3007 RMK A01 T03110170  RH  043%=      5-min Rain = 0
KSM2 140111Z 05009KT 31/17 A3007 RMK A01 T03110170  RH  043%=      5-min Rain = 0
KSM2 140112Z 06007KT 31/17 A3007 RMK A01 T03100169  RH  043%=      5-min Rain = 0
KSM2 140113Z 05008KT 31/17 A3007 RMK A01 T03100169  RH  043%=      5-min Rain = 0
KSM2 140114Z 05009KT 31/17 A3007 RMK A01 T03100169  RH  043%=      5-min Rain = 0
KSM2 140115Z 05008KT 31/17 A3007 RMK A01 T03100169  RH  043%=      5-min Rain = 0
KSM2 140116Z 05008KT 31/17 A3007 RMK A01 T03090169  RH  043%=      5-min Rain = 0
KSM2 140117Z 05008KT 31/17 A3007 RMK A01 T03090169  RH  043%=      5-min Rain = 0
KSM2 140118Z 06008KT 31/17 A3007 RMK A01 T03080169  RH  043%=      5-min Rain = 0
KSM2 140119Z 05008KT 31/17 A3007 RMK A01 T03080169  RH  043%=      5-min Rain = 0
KSM2 140120Z 05009KT 31/17 A3007 RMK A01 T03080169  RH  043%=      5-min Rain = 0
KSM2 140121Z 06008KT 31/17 A3007 RMK A01 T03070169  RH  043%=      5-min Rain = 0
KSM2 140122Z 06008KT 31/17 A3007 RMK A01 T03070169  RH  044%=      5-min Rain = 0
KSM2 140123Z 06008KT 31/17 A3007 RMK A01 T03060169  RH  044%=      5-min Rain = 0
KSM2 140124Z 06007KT 31/17 A3007 RMK A01 T03060169  RH  044%=      5-min Rain = 0
KSM2 140125Z 06008KT 31/17 A3007 RMK A01 T03060169  RH  044%=      5-min Rain = 0
KSM2 140126Z 06008KT 31/17 A3007 RMK A01 T03060169  RH  044%=      5-min Rain = 0
KSM2 140127Z 06007KT 31/17 A3007 RMK A01 T03050169  RH  044%=      5-min Rain = 0
KSM2 140128Z 06007KT 31/17 A3007 RMK A01 T03050169  RH  044%=      5-min Rain = 0
KSM2 140129Z 06007KT 30/17 A3007 RMK A01 T03040169  RH  044%=      5-min Rain = 0
KSM2 140130Z 06007KT 30/17 A3007 RMK A01 T03040169  RH  044%=      5-min Rain = 0
KSM2 140131Z 06007KT 30/17 A3007 RMK A01 T03030169  RH  044%=      5-min Rain = 0
KSM2 140132Z 06006KT 30/17 A3007 RMK A01 T03030169  RH  045%=      5-min Rain = 0
KSM2 140133Z 06007KT 30/17 A3007 RMK A01 T03020169  RH  045%=      5-min Rain = 0
KSM2 140134Z 05006KT 30/17 A3007 RMK A01 T03020169  RH  045%=      5-min Rain = 0
KSM2 140135Z 05007KT 30/17 A3007 RMK A01 T03010169  RH  045%=      5-min Rain = 0
KSM2 140136Z 06006KT 30/17 A3007 RMK A01 T03010169  RH  045%=      5-min Rain = 0
KSM2 140137Z 06005KT 30/17 A3007 RMK A01 T03000169  RH  045%=      5-min Rain = 0
KSM2 140138Z 06007KT 30/17 A3007 RMK A01 T03000169  RH  045%=      5-min Rain = 0
KSM2 140139Z 07008KT 30/17 A3007 RMK A01 T02990169  RH  045%=      5-min Rain = 0
KSM2 140140Z 07006KT 30/17 A3007 RMK A01 T02990169  RH  045%=      5-min Rain = 0
KSM2 140141Z 07007KT 30/17 A3007 RMK A01 T02990169  RH  046%=      5-min Rain = 0
KSM2 140142Z 06008KT 30/17 A3007 RMK A01 T02990169  RH  046%=      5-min Rain = 0
KSM2 140143Z 07007KT 30/17 A3007 RMK A01 T02990169  RH  046%=      5-min Rain = 0
KSM2 140144Z 07007KT 30/17 A3007 RMK A01 T02980169  RH  046%=      5-min Rain = 0
KSM2 140145Z 07006KT 30/17 A3007 RMK A01 T02980169  RH  046%=      5-min Rain = 0
KSM2 140146Z 07006KT 30/17 A3007 RMK A01 T02970169  RH  046%=      5-min Rain = 0
KSM2 140147Z 07007KT 30/17 A3007 RMK A01 T02970169  RH  046%=      5-min Rain = 0
KSM2 140148Z 07007KT 30/17 A3007 RMK A01 T02970169  RH  046%=      5-min Rain = 0
KSM2 140149Z 07008KT 30/17 A3007 RMK A01 T02970169  RH  046%=      5-min Rain = 0
KSM2 140150Z 07007KT 30/17 A3007 RMK A01 T02960170  RH  046%=      5-min Rain = 0
KSM2 140151Z 07007KT 30/17 A3007 RMK A01 T02960170  RH  047%=      5-min Rain = 0
KSM2 140152Z 07007KT 30/17 A3007 RMK A01 T02950170  RH  047%=      5-min Rain = 0
KSM2 140153Z 06007KT 30/17 A3007 RMK A01 T02950170  RH  047%=      5-min Rain = 0
KSM2 140154Z 06006KT 30/17 A3007 RMK A01 T02950170  RH  047%=      5-min Rain = 0
KSM2 140155Z 06006KT 30/17 A3008 RMK A01 T02950169  RH  047%=      5-min Rain = 0
KSM2 140156Z 06007KT 30/17 A3008 RMK A01 T02950170  RH  047%=      5-min Rain = 0
KSM2 140157Z 06006KT 30/17 A3008 RMK A01 T02950170  RH  047%=      5-min Rain = 0
KSM2 140158Z 06006KT 30/17 A3008 RMK A01 T02950170  RH  047%=      5-min Rain = 0
KSM2 140159Z 06006KT 29/17 A3008 RMK A01 T02940170  RH  047%=      5-min Rain = 0
KSM2 140200Z 07007KT 29/17 A3008 RMK A01 T02930170  RH  047%=      5-min Rain = 0
KSM2 140201Z 07007KT 29/17 A3008 RMK A01 T02930170  RH  047%=      5-min Rain = 0
KSM2 140202Z 06007KT 29/17 A3008 RMK A01 T02930170  RH  047%=      5-min Rain = 0
KSM2 140203Z 07007KT 29/17 A3008 RMK A01 T02930170  RH  047%=      5-min Rain = 0
KSM2 140204Z 06007KT 29/17 A3008 RMK A01 T02930170  RH  047%=      5-min Rain = 0
KSM2 140205Z 06005KT 29/17 A3008 RMK A01 T02930170  RH  047%=      5-min Rain = 0
KSM2 140206Z 06007KT 29/17 A3008 RMK A01 T02930170  RH  047%=      5-min Rain = 0
KSM2 140207Z 06006KT 29/17 A3008 RMK A01 T02920170  RH  048%=      5-min Rain = 0
KSM2 140208Z 06008KT 29/17 A3008 RMK A01 T02920170  RH  048%=      5-min Rain = 0
KSM2 140209Z 06007KT 29/17 A3008 RMK A01 T02920170  RH  048%=      5-min Rain = 0
KSM2 140210Z 06007KT 29/17 A3008 RMK A01 T02910170  RH  048%=      5-min Rain = 0
KSM2 140211Z 06006KT 29/17 A3008 RMK A01 T02910169  RH  048%=      5-min Rain = 0
KSM2 140212Z 06006KT 29/17 A3008 RMK A01 T02900169  RH  048%=      5-min Rain = 0
KSM2 140213Z 06005KT 29/17 A3008 RMK A01 T02890169  RH  048%=      5-min Rain = 0
KSM2 140214Z 06005KT 29/17 A3009 RMK A01 T02890169  RH  048%=      5-min Rain = 0
KSM2 140215Z 06005KT 29/17 A3009 RMK A01 T02880169  RH  049%=      5-min Rain = 0
KSM2 140216Z 06005KT 29/17 A3009 RMK A01 T02870169  RH  049%=      5-min Rain = 0
KSM2 140217Z 06006KT 29/17 A3009 RMK A01 T02870169  RH  049%=      5-min Rain = 0
KSM2 140218Z 06006KT 29/17 A3009 RMK A01 T02860169  RH  049%=      5-min Rain = 0
KSM2 140219Z 05006KT 29/17 A3009 RMK A01 T02860169  RH  049%=      5-min Rain = 0
KSM2 140220Z 06006KT 29/17 A3009 RMK A01 T02860169  RH  049%=      5-min Rain = 0
KSM2 140221Z 06007KT 29/17 A3009 RMK A01 T02860169  RH  049%=      5-min Rain = 0
KSM2 140222Z 06007KT 29/17 A3009 RMK A01 T02860170  RH  049%=      5-min Rain = 0
KSM2 140223Z 06007KT 29/17 A3009 RMK A01 T02850170  RH  049%=      5-min Rain = 0
KSM2 140224Z 06006KT 29/17 A3009 RMK A01 T02860170  RH  050%=      5-min Rain = 0
KSM2 140225Z 06007KT 29/17 A301 RMK A01 T02850170  RH  050%=      5-min Rain = 0
KSM2 140226Z 06006KT 29/17 A301 RMK A01 T02850170  RH  050%=      5-min Rain = 0
KSM2 140227Z 06006KT 29/17 A301 RMK A01 T02850170  RH  050%=      5-min Rain = 0
KSM2 140228Z 06007KT 28/17 A301 RMK A01 T02840170  RH  050%=      5-min Rain = 0
KSM2 140229Z 06007KT 28/17 A301 RMK A01 T02840170  RH  050%=      5-min Rain = 0
KSM2 140230Z 06006KT 28/17 A301 RMK A01 T02840170  RH  050%=      5-min Rain = 0
KSM2 140231Z 07006KT 28/17 A301 RMK A01 T02830170  RH  050%=      5-min Rain = 0
KSM2 140232Z 06006KT 28/17 A301 RMK A01 T02830170  RH  050%=      5-min Rain = 0
KSM2 140233Z 06006KT 28/17 A301 RMK A01 T02830170  RH  050%=      5-min Rain = 0
KSM2 140234Z 07006KT 28/17 A301 RMK A01 T02830170  RH  050%=      5-min Rain = 0
KSM2 140235Z 07006KT 28/17 A301 RMK A01 T02820170  RH  051%=      5-min Rain = 0
KSM2 140236Z 07006KT 28/17 A301 RMK A01 T02820170  RH  051%=      5-min Rain = 0
KSM2 140237Z 07006KT 28/17 A301 RMK A01 T02820170  RH  051%=      5-min Rain = 0
KSM2 140238Z 07007KT 28/17 A301 RMK A01 T02810170  RH  051%=      5-min Rain = 0
KSM2 140239Z 07006KT 28/17 A301 RMK A01 T02810170  RH  051%=      5-min Rain = 0
KSM2 140240Z 07006KT 28/17 A301 RMK A01 T02810171  RH  051%=      5-min Rain = 0
KSM2 140241Z 07006KT 28/17 A301 RMK A01 T02810170  RH  051%=      5-min Rain = 0
KSM2 140242Z 07005KT 28/17 A301 RMK A01 T02810171  RH  051%=      5-min Rain = 0
KSM2 140243Z 06006KT 28/17 A3011 RMK A01 T02800170  RH  051%=      5-min Rain = 0
KSM2 140244Z 06006KT 28/17 A3011 RMK A01 T02810171  RH  051%=      5-min Rain = 0
KSM2 140245Z 06006KT 28/17 A3011 RMK A01 T02810171  RH  051%=      5-min Rain = 0
KSM2 140246Z 07006KT 28/17 A3011 RMK A01 T02800171  RH  051%=      5-min Rain = 0
KSM2 140247Z 06006KT 28/17 A3011 RMK A01 T02800171  RH  051%=      5-min Rain = 0
KSM2 140248Z 06006KT 28/17 A3011 RMK A01 T02800171  RH  052%=      5-min Rain = 0
KSM2 140249Z 06006KT 28/17 A3011 RMK A01 T02790171  RH  052%=      5-min Rain = 0
KSM2 140250Z 06006KT 28/17 A3011 RMK A01 T02790170  RH  052%=      5-min Rain = 0
KSM2 140251Z 06006KT 28/17 A3011 RMK A01 T02790171  RH  052%=      5-min Rain = 0
KSM2 140252Z 06006KT 28/17 A3011 RMK A01 T02780170  RH  052%=      5-min Rain = 0
KSM2 140253Z 06007KT 28/17 A3011 RMK A01 T02780170  RH  052%=      5-min Rain = 0
KSM2 140254Z 06006KT 28/17 A3011 RMK A01 T02770170  RH  052%=      5-min Rain = 0
KSM2 140255Z 06006KT 28/17 A3011 RMK A01 T02770171  RH  052%=      5-min Rain = 0
KSM2 140256Z 06005KT 28/17 A3011 RMK A01 T02770171  RH  052%=      5-min Rain = 0
KSM2 140257Z 06006KT 28/17 A3011 RMK A01 T02760170  RH  052%=      5-min Rain = 0
KSM2 140258Z 06005KT 28/17 A3011 RMK A01 T02760170  RH  052%=      5-min Rain = 0
KSM2 140259Z 06006KT 28/17 A3011 RMK A01 T02750170  RH  053%=      5-min Rain = 0
KSM2 140300Z 06006KT 28/17 A3011 RMK A01 T02750170  RH  053%=      5-min Rain = 0
KSM2 140301Z 06006KT 28/17 A3011 RMK A01 T02750170  RH  053%=      5-min Rain = 0
KSM2 140302Z 06005KT 27/17 A3011 RMK A01 T02740170  RH  053%=      5-min Rain = 0
KSM2 140303Z 06005KT 27/17 A3011 RMK A01 T02740170  RH  053%=      5-min Rain = 0
KSM2 140304Z 06006KT 27/17 A3011 RMK A01 T02740170  RH  053%=      5-min Rain = 0
KSM2 140305Z 06006KT 27/17 A3011 RMK A01 T02730170  RH  053%=      5-min Rain = 0
KSM2 140306Z 06006KT 27/17 A3011 RMK A01 T02730170  RH  053%=      5-min Rain = 0
KSM2 140307Z 06006KT 27/17 A3011 RMK A01 T02730170  RH  053%=      5-min Rain = 0
KSM2 140308Z 06006KT 27/17 A3011 RMK A01 T02730170  RH  053%=      5-min Rain = 0
KSM2 140309Z 06007KT 27/17 A3011 RMK A01 T02730170  RH  053%=      5-min Rain = 0
KSM2 140310Z 06006KT 27/17 A3011 RMK A01 T02730170  RH  053%=      5-min Rain = 0
KSM2 140311Z 06006KT 27/17 A3012 RMK A01 T02730170  RH  053%=      5-min Rain = 0
KSM2 140312Z 06006KT 27/17 A3012 RMK A01 T02730170  RH  053%=      5-min Rain = 0
KSM2 140313Z 06006KT 27/17 A3012 RMK A01 T02720170  RH  054%=      5-min Rain = 0
KSM2 140314Z 06006KT 27/17 A3012 RMK A01 T02720170  RH  054%=      5-min Rain = 0
KSM2 140315Z 06006KT 27/17 A3012 RMK A01 T02720171  RH  054%=      5-min Rain = 0
KSM2 140316Z 06005KT 27/17 A3012 RMK A01 T02720171  RH  054%=      5-min Rain = 0
KSM2 140317Z 06006KT 27/17 A3012 RMK A01 T02720171  RH  054%=      5-min Rain = 0
KSM2 140318Z 06006KT 27/17 A3012 RMK A01 T02720170  RH  054%=      5-min Rain = 0
KSM2 140319Z 06006KT 27/17 A3012 RMK A01 T02710170  RH  054%=      5-min Rain = 0
KSM2 140320Z 06006KT 27/17 A3012 RMK A01 T02710170  RH  054%=      5-min Rain = 0
KSM2 140321Z 06006KT 27/17 A3012 RMK A01 T02700170  RH  054%=      5-min Rain = 0
KSM2 140322Z 05006KT 27/17 A3012 RMK A01 T02700170  RH  054%=      5-min Rain = 0
KSM2 140323Z 06006KT 27/17 A3013 RMK A01 T02700171  RH  054%=      5-min Rain = 0
KSM2 140324Z 05006KT 27/17 A3013 RMK A01 T02700171  RH  054%=      5-min Rain = 0
KSM2 140325Z 05006KT 27/17 A3013 RMK A01 T02700171  RH  055%=      5-min Rain = 0
KSM2 140326Z 06007KT 27/17 A3013 RMK A01 T02700171  RH  055%=      5-min Rain = 0
KSM2 140327Z 06007KT 27/17 A3013 RMK A01 T02700171  RH  055%=      5-min Rain = 0
KSM2 140328Z 06007KT 27/17 A3013 RMK A01 T02700172  RH  055%=      5-min Rain = 0
KSM2 140329Z 06006KT 27/17 A3013 RMK A01 T02700171  RH  055%=      5-min Rain = 0
KSM2 140330Z 06006KT 27/17 A3013 RMK A01 T02700172  RH  055%=      5-min Rain = 0
KSM2 140331Z 06007KT 27/17 A3013 RMK A01 T02690171  RH  055%=      5-min Rain = 0
KSM2 140332Z 06007KT 27/17 A3013 RMK A01 T02690171  RH  055%=      5-min Rain = 0
KSM2 140333Z 06007KT 27/17 A3013 RMK A01 T02690171  RH  055%=      5-min Rain = 0
KSM2 140334Z 07006KT 27/17 A3013 RMK A01 T02690172  RH  055%=      5-min Rain = 0
KSM2 140335Z 07006KT 27/17 A3013 RMK A01 T02690172  RH  055%=      5-min Rain = 0
KSM2 140336Z 07006KT 27/17 A3013 RMK A01 T02690172  RH  055%=      5-min Rain = 0
KSM2 140337Z 07006KT 27/17 A3013 RMK A01 T02680172  RH  055%=      5-min Rain = 0
KSM2 140338Z 07006KT 27/17 A3013 RMK A01 T02680171  RH  056%=      5-min Rain = 0
KSM2 140339Z 06006KT 27/17 A3013 RMK A01 T02670171  RH  056%=      5-min Rain = 0
KSM2 140340Z 07006KT 27/17 A3013 RMK A01 T02670172  RH  056%=      5-min Rain = 0
KSM2 140341Z 07007KT 27/17 A3013 RMK A01 T02670172  RH  056%=      5-min Rain = 0
KSM2 140342Z 06006KT 27/17 A3013 RMK A01 T02670172  RH  056%=      5-min Rain = 0
KSM2 140343Z 06006KT 27/17 A3013 RMK A01 T02670171  RH  056%=      5-min Rain = 0
KSM2 140344Z 06006KT 27/17 A3013 RMK A01 T02670171  RH  056%=      5-min Rain = 0
KSM2 140345Z 06007KT 27/17 A3013 RMK A01 T02670171  RH  056%=      5-min Rain = 0
KSM2 140346Z 06006KT 27/17 A3013 RMK A01 T02670172  RH  056%=      5-min Rain = 0
KSM2 140347Z 06006KT 27/17 A3013 RMK A01 T02670172  RH  056%=      5-min Rain = 0
KSM2 140348Z 06006KT 27/17 A3013 RMK A01 T02670171  RH  056%=      5-min Rain = 0
KSM2 140349Z 06006KT 27/17 A3013 RMK A01 T02660171  RH  056%=      5-min Rain = 0
KSM2 140350Z 06006KT 27/17 A3013 RMK A01 T02660172  RH  056%=      5-min Rain = 0
KSM2 140351Z 06006KT 27/17 A3013 RMK A01 T02660172  RH  056%=      5-min Rain = 0
KSM2 140352Z 06006KT 27/17 A3013 RMK A01 T02650171  RH  056%=      5-min Rain = 0
KSM2 140353Z 06005KT 27/17 A3013 RMK A01 T02650172  RH  057%=      5-min Rain = 0
KSM2 140354Z 06006KT 26/17 A3014 RMK A01 T02640171  RH  057%=      5-min Rain = 0
KSM2 140355Z 06005KT 26/17 A3014 RMK A01 T02630171  RH  057%=      5-min Rain = 0
KSM2 140356Z 06006KT 26/17 A3014 RMK A01 T02630171  RH  057%=      5-min Rain = 0
KSM2 140357Z 06006KT 26/17 A3014 RMK A01 T02620171  RH  057%=      5-min Rain = 0
KSM2 140358Z 06006KT 26/17 A3014 RMK A01 T02620171  RH  057%=      5-min Rain = 0
KSM2 140359Z 06007KT 26/17 A3014 RMK A01 T02620171  RH  057%=      5-min Rain = 0
KSM2 140400Z 06007KT 26/17 A3014 RMK A01 T02620171  RH  057%=      5-min Rain = 0
KSM2 140401Z 05007KT 26/17 A3014 RMK A01 T02620172  RH  057%=      5-min Rain = 0
KSM2 140402Z 05006KT 26/17 A3014 RMK A01 T02620172  RH  057%=      5-min Rain = 0
KSM2 140403Z 06006KT 26/17 A3014 RMK A01 T02620172  RH  058%=      5-min Rain = 0
KSM2 140404Z 06005KT 26/17 A3014 RMK A01 T02620172  RH  058%=      5-min Rain = 0
KSM2 140405Z 06006KT 26/17 A3014 RMK A01 T02620172  RH  058%=      5-min Rain = 0
KSM2 140406Z 06006KT 26/17 A3014 RMK A01 T02610172  RH  058%=      5-min Rain = 0
KSM2 140407Z 07006KT 26/17 A3014 RMK A01 T02610172  RH  058%=      5-min Rain = 0
KSM2 140408Z 06006KT 26/17 A3014 RMK A01 T02610172  RH  058%=      5-min Rain = 0
KSM2 140409Z 06007KT 26/17 A3014 RMK A01 T02610172  RH  058%=      5-min Rain = 0
KSM2 140410Z 06007KT 26/17 A3014 RMK A01 T02610172  RH  058%=      5-min Rain = 0
KSM2 140411Z 06006KT 26/17 A3014 RMK A01 T02610172  RH  058%=      5-min Rain = 0
KSM2 140412Z 06006KT 26/17 A3014 RMK A01 T02610172  RH  058%=      5-min Rain = 0
KSM2 140413Z 06006KT 26/17 A3014 RMK A01 T02610172  RH  058%=      5-min Rain = 0
KSM2 140414Z 06006KT 26/17 A3014 RMK A01 T02600172  RH  058%=      5-min Rain = 0
KSM2 140415Z 06005KT 26/17 A3014 RMK A01 T02590172  RH  058%=      5-min Rain = 0
KSM2 140416Z 06006KT 26/17 A3014 RMK A01 T02590172  RH  059%=      5-min Rain = 0
KSM2 140417Z 06005KT 26/17 A3014 RMK A01 T02590172  RH  059%=      5-min Rain = 0
KSM2 140418Z 06006KT 26/17 A3014 RMK A01 T02580172  RH  059%=      5-min Rain = 0
KSM2 140419Z 06006KT 26/17 A3014 RMK A01 T02580172  RH  059%=      5-min Rain = 0
KSM2 140420Z 06007KT 26/17 A3014 RMK A01 T02580172  RH  059%=      5-min Rain = 0
KSM2 140421Z 05007KT 26/17 A3014 RMK A01 T02580172  RH  059%=      5-min Rain = 0
KSM2 140422Z 06007KT 26/17 A3014 RMK A01 T02580172  RH  059%=      5-min Rain = 0
KSM2 140423Z 06007KT 26/17 A3014 RMK A01 T02580173  RH  059%=      5-min Rain = 0
KSM2 140424Z 06008KT 26/17 A3014 RMK A01 T02580173  RH  059%=      5-min Rain = 0
KSM2 140425Z 06006KT 26/17 A3014 RMK A01 T02570173  RH  059%=      5-min Rain = 0
KSM2 140426Z 06006KT 26/17 A3014 RMK A01 T02570172  RH  060%=      5-min Rain = 0
KSM2 140427Z 06006KT 26/17 A3014 RMK A01 T02570172  RH  060%=      5-min Rain = 0
KSM2 140428Z 06006KT 26/17 A3014 RMK A01 T02560172  RH  060%=      5-min Rain = 0
KSM2 140429Z 05007KT 26/17 A3014 RMK A01 T02560172  RH  060%=      5-min Rain = 0
KSM2 140430Z 06006KT 26/17 A3014 RMK A01 T02560172  RH  060%=      5-min Rain = 0
KSM2 140431Z 05007KT 26/17 A3014 RMK A01 T02560172  RH  060%=      5-min Rain = 0
KSM2 140432Z 05007KT 26/17 A3014 RMK A01 T02560172  RH  060%=      5-min Rain = 0
KSM2 140433Z 06007KT 26/17 A3014 RMK A01 T02560172  RH  060%=      5-min Rain = 0
KSM2 140434Z 06008KT 26/17 A3014 RMK A01 T02560172  RH  060%=      5-min Rain = 0
KSM2 140435Z 06007KT 26/17 A3014 RMK A01 T02570172  RH  060%=      5-min Rain = 0
KSM2 140436Z 05007KT 26/17 A3014 RMK A01 T02570172  RH  059%=      5-min Rain = 0
KSM2 140437Z 06008KT 26/17 A3014 RMK A01 T02580173  RH  059%=      5-min Rain = 0
KSM2 140438Z 05008KT 26/17 A3014 RMK A01 T02580172  RH  059%=      5-min Rain = 0
KSM2 140439Z 05007KT 26/17 A3014 RMK A01 T02580173  RH  059%=      5-min Rain = 0
KSM2 140440Z 05007KT 26/17 A3014 RMK A01 T02580173  RH  059%=      5-min Rain = 0
KSM2 140441Z 05006KT 26/17 A3014 RMK A01 T02580173  RH  059%=      5-min Rain = 0
KSM2 140442Z 05007KT 26/17 A3014 RMK A01 T02580173  RH  059%=      5-min Rain = 0
KSM2 140443Z 05007KT 26/17 A3014 RMK A01 T02570173  RH  060%=      5-min Rain = 0
KSM2 140444Z 05007KT 26/17 A3014 RMK A01 T02570173  RH  060%=      5-min Rain = 0
KSM2 140445Z 05007KT 26/17 A3014 RMK A01 T02570173  RH  060%=      5-min Rain = 0
KSM2 140446Z 05008KT 26/17 A3014 RMK A01 T02570173  RH  060%=      5-min Rain = 0
KSM2 140447Z 05007KT 26/17 A3014 RMK A01 T02570174  RH  060%=      5-min Rain = 0
KSM2 140448Z 05008KT 26/17 A3014 RMK A01 T02570174  RH  060%=      5-min Rain = 0
KSM2 140449Z 05007KT 26/17 A3014 RMK A01 T02560174  RH  060%=      5-min Rain = 0
KSM2 140450Z 05006KT 26/17 A3014 RMK A01 T02560174  RH  060%=      5-min Rain = 0
KSM2 140451Z 05006KT 26/17 A3014 RMK A01 T02560174  RH  060%=      5-min Rain = 0
KSM2 140452Z 05007KT 26/17 A3014 RMK A01 T02550174  RH  061%=      5-min Rain = 0
KSM2 140453Z 05006KT 26/17 A3014 RMK A01 T02550174  RH  061%=      5-min Rain = 0
KSM2 140454Z 05007KT 26/17 A3014 RMK A01 T02550174  RH  061%=      5-min Rain = 0
KSM2 140455Z 05006KT 25/17 A3014 RMK A01 T02540174  RH  061%=      5-min Rain = 0
KSM2 140456Z 05006KT 25/17 A3015 RMK A01 T02540174  RH  061%=      5-min Rain = 0
KSM2 140457Z 06006KT 25/17 A3015 RMK A01 T02530174  RH  062%=      5-min Rain = 0
KSM2 140458Z 05006KT 25/17 A3015 RMK A01 T02520174  RH  062%=      5-min Rain = 0
KSM2 140459Z 06006KT 25/17 A3015 RMK A01 T02520174  RH  062%=      5-min Rain = 0

Page generated in 0.1223 seconds.